Time,TemperatureF,DewpointF,PressureIn,WindDirection,WindDirectionDegrees,WindSpeedMPH,WindSpeedGustMPH,Humidity,HourlyPrecipIn,Conditions,Clouds,dailyrainin,SoftwareType,DateUTC
2013-03-05 00:01:00,25.6,19.7,30.01,East,83,2.4,4.6,78,0.00,CLR,,0.00,WeatherDisplay:10.37,2013-03-05 06:01:00,
2013-03-05 00:02:00,25.5,19.6,30.01,NE,56,3.4,4.4,78,0.00,CLR,,0.00,WeatherDisplay:10.37,2013-03-05 06:02:00,
2013-03-05 00:05:00,25.6,19.7,30.01,NE,54,5.1,6.9,78,0.00,CLR,,0.00,WeatherDisplay:10.37,2013-03-05 06:05:00,
2013-03-05 00:06:00,25.7,19.8,30.01,ENE,65,4.4,6.9,78,0.00,CLR,,0.00,WeatherDisplay:10.37,2013-03-05 06:06:00,
2013-03-05 00:07:00,25.6,19.7,30.01,NE,56,4.6,6.9,78,0.00,CLR,,0.00,WeatherDisplay:10.37,2013-03-05 06:07:00,
2013-03-05 00:10:00,25.6,19.7,30.00,NNE,27,4.7,9.2,78,0.00,CLR,,0.00,WeatherDisplay:10.37,2013-03-05 06:10:00,
2013-03-05 00:11:00,25.6,19.7,30.00,ENE,62,4.6,8.1,78,0.00,CLR,,0.00,WeatherDisplay:10.37,2013-03-05 06:11:00,
2013-03-05 00:12:00,25.6,19.7,30.00,ESE,112,4.2,6.9,78,0.00,CLR,,0.00,WeatherDisplay:10.37,2013-03-05 06:12:00,
2013-03-05 00:15:00,25.6,19.7,30.00,ENE,78,5.2,8.4,78,0.00,CLR,,0.00,WeatherDisplay:10.37,2013-03-05 06:15:00,
2013-03-05 00:16:00,25.7,19.8,30.00,NNE,24,7.0,9.2,78,0.00,CLR,,0.00,WeatherDisplay:10.37,2013-03-05 06:16:00,
2013-03-05 00:17:00,25.7,19.8,30.00,East,96,5.0,11.5,78,0.00,CLR,,0.00,WeatherDisplay:10.37,2013-03-05 06:17:00,
2013-03-05 00:18:00,25.7,19.8,30.00,ENE,64,4.2,6.9,78,0.00,CLR,,0.00,WeatherDisplay:10.37,2013-03-05 06:18:00,
2013-03-05 00:20:00,25.7,19.8,30.00,East,89,3.6,5.8,78,0.00,CLR,,0.00,WeatherDisplay:10.37,2013-03-05 06:20:00,
2013-03-05 00:22:00,25.6,19.7,30.00,ESE,109,4.4,6.9,78,0.00,CLR,,0.00,WeatherDisplay:10.37,2013-03-05 06:22:00,
2013-03-05 00:23:00,25.6,19.7,30.00,NE,54,2.2,4.6,78,0.00,CLR,,0.00,WeatherDisplay:10.37,2013-03-05 06:23:00,
2013-03-05 00:25:00,25.7,19.8,30.00,ENE,61,4.1,5.8,78,0.00,CLR,,0.00,WeatherDisplay:10.37,2013-03-05 06:25:00,
2013-03-05 00:27:00,25.6,19.7,30.00,NNE,32,3.7,6.9,78,0.00,CLR,,0.00,WeatherDisplay:10.37,2013-03-05 06:27:00,
2013-03-05 00:28:00,25.6,19.7,30.00,East,90,3.6,6.9,78,0.00,CLR,,0.00,WeatherDisplay:10.37,2013-03-05 06:28:00,
2013-03-05 00:30:00,25.6,19.7,30.00,ENE,71,2.7,5.8,78,0.00,CLR,,0.00,WeatherDisplay:10.37,2013-03-05 06:30:00,
2013-03-05 00:33:00,25.7,19.8,30.00,East,86,5.3,8.3,78,0.00,CLR,,0.00,WeatherDisplay:10.37,2013-03-05 06:33:00,
2013-03-05 00:36:00,25.7,19.8,30.00,NNE,27,3.7,4.8,78,0.00,CLR,,0.00,WeatherDisplay:10.37,2013-03-05 06:36:00,
2013-03-05 00:38:00,25.7,19.8,30.00,East,90,2.4,5.8,78,0.00,CLR,,0.00,WeatherDisplay:10.37,2013-03-05 06:38:00,
2013-03-05 00:41:00,25.7,19.8,30.00,ENE,68,3.9,6.9,78,0.00,CLR,,0.00,WeatherDisplay:10.37,2013-03-05 06:41:00,
2013-03-05 00:43:00,25.7,19.8,30.00,East,97,4.4,8.1,78,0.00,CLR,,0.00,WeatherDisplay:10.37,2013-03-05 06:43:00,
2013-03-05 00:44:00,25.7,19.8,30.00,SE,127,3.5,5.8,78,0.00,CLR,,0.00,WeatherDisplay:10.37,2013-03-05 06:44:00,
2013-03-05 00:46:00,25.7,19.8,30.00,NNE,17,3.6,5.8,78,0.00,CLR,,0.00,WeatherDisplay:10.37,2013-03-05 06:46:00,
2013-03-05 00:48:00,25.7,19.8,30.00,East,86,4.3,6.9,78,0.00,CLR,,0.00,WeatherDisplay:10.37,2013-03-05 06:48:00,
2013-03-05 00:49:00,25.8,19.9,30.00,NE,48,3.7,6.9,78,0.00,CLR,,0.00,WeatherDisplay:10.37,2013-03-05 06:49:00,
2013-03-05 00:51:00,25.7,19.8,30.00,East,97,4.3,6.9,78,0.00,CLR,,0.00,WeatherDisplay:10.37,2013-03-05 06:51:00,
2013-03-05 00:53:00,25.7,19.8,30.00,NE,38,4.6,9.2,78,0.00,CLR,,0.00,WeatherDisplay:10.37,2013-03-05 06:53:00,
2013-03-05 00:54:00,25.7,19.8,30.00,ENE,72,3.4,5.8,78,0.00,CLR,,0.00,WeatherDisplay:10.37,2013-03-05 06:54:00,
2013-03-05 00:56:00,25.7,19.8,30.00,NE,56,4.6,6.9,78,0.00,CLR,,0.00,WeatherDisplay:10.37,2013-03-05 06:56:00,
2013-03-05 00:58:00,25.7,19.8,30.00,ESE,107,5.3,9.2,78,0.00,CLR,,0.00,WeatherDisplay:10.37,2013-03-05 06:58:00,
2013-03-05 00:59:00,25.7,19.8,30.00,East,83,4.6,8.1,78,0.00,CLR,,0.00,WeatherDisplay:10.37,2013-03-05 06:59:00,
2013-03-05 01:01:00,25.7,19.8,30.00,East,82,4.1,8.1,78,0.00,CLR,,0.00,WeatherDisplay:10.37,2013-03-05 07:01:00,
2013-03-05 01:04:00,25.7,19.8,30.00,ENE,73,3.1,5.8,78,0.00,CLR,,0.00,WeatherDisplay:10.37,2013-03-05 07:04:00,
2013-03-05 01:06:00,25.7,19.8,30.00,NE,37,3.6,6.9,78,0.00,CLR,,0.00,WeatherDisplay:10.37,2013-03-05 07:06:00,
2013-03-05 01:09:00,25.8,19.9,30.00,NE,38,3.9,5.8,78,0.00,CLR,,0.00,WeatherDisplay:10.37,2013-03-05 07:09:00,
2013-03-05 01:11:00,25.8,19.9,30.00,NNE,23,4.3,5.8,78,0.00,CLR,,0.00,WeatherDisplay:10.37,2013-03-05 07:11:00,
2013-03-05 01:14:00,25.8,19.9,30.00,NNE,30,5.2,8.1,78,0.00,CLR,,0.00,WeatherDisplay:10.37,2013-03-05 07:14:00,
2013-03-05 01:15:00,25.9,20.0,30.00,North,6,2.2,6.9,78,0.00,CLR,,0.00,WeatherDisplay:10.37,2013-03-05 07:15:00,
2013-03-05 01:16:00,25.9,20.0,30.00,East,79,0.7,3.5,78,0.00,CLR,,0.00,WeatherDisplay:10.37,2013-03-05 07:16:00,
2013-03-05 01:19:00,25.9,20.0,30.00,NE,41,2.8,5.5,78,0.00,CLR,,0.00,WeatherDisplay:10.37,2013-03-05 07:19:00,
2013-03-05 01:20:00,25.9,20.0,29.99,East,80,4.2,6.9,78,0.00,CLR,,0.00,WeatherDisplay:10.37,2013-03-05 07:20:00,
2013-03-05 01:21:00,25.9,20.0,30.00,NE,56,3.6,4.6,78,0.00,CLR,,0.00,WeatherDisplay:10.37,2013-03-05 07:21:00,
2013-03-05 01:24:00,25.8,19.9,29.99,East,92,4.7,6.9,78,0.00,CLR,,0.00,WeatherDisplay:10.37,2013-03-05 07:24:00,
2013-03-05 01:25:00,25.9,20.0,29.99,ENE,71,4.1,5.8,78,0.00,CLR,,0.00,WeatherDisplay:10.37,2013-03-05 07:25:00,
2013-03-05 01:27:00,25.9,20.0,29.99,North,8,4.8,6.9,78,0.00,CLR,,0.00,WeatherDisplay:10.37,2013-03-05 07:27:00,
2013-03-05 01:30:00,26.0,20.1,29.99,ENE,68,2.6,5.8,78,0.00,CLR,,0.00,WeatherDisplay:10.37,2013-03-05 07:30:00,
2013-03-05 01:31:00,26.0,20.1,29.99,NNE,31,3.7,5.8,78,0.00,CLR,,0.00,WeatherDisplay:10.37,2013-03-05 07:31:00,
2013-03-05 01:32:00,26.0,20.1,29.99,NE,42,2.7,4.6,78,0.00,CLR,,0.00,WeatherDisplay:10.37,2013-03-05 07:32:00,
2013-03-05 01:35:00,26.0,20.1,29.99,East,86,6.5,10.4,78,0.00,CLR,,0.00,WeatherDisplay:10.37,2013-03-05 07:35:00,
2013-03-05 01:36:00,26.0,20.1,29.99,NNE,20,2.8,6.9,78,0.00,CLR,,0.00,WeatherDisplay:10.37,2013-03-05 07:36:00,
2013-03-05 01:37:00,26.0,20.1,29.99,NNE,17,4.1,6.9,78,0.00,CLR,,0.00,WeatherDisplay:10.37,2013-03-05 07:37:00,
2013-03-05 01:40:00,26.0,20.4,29.99,SE,131,4.6,8.9,79,0.00,CLR,,0.00,WeatherDisplay:10.37,2013-03-05 07:40:00,
2013-03-05 01:41:00,26.1,20.5,29.99,NE,44,3.7,8.1,79,0.00,CLR,,0.00,WeatherDisplay:10.37,2013-03-05 07:41:00,
2013-03-05 01:42:00,26.1,20.5,29.99,East,79,2.8,4.6,79,0.00,CLR,,0.00,WeatherDisplay:10.37,2013-03-05 07:42:00,
2013-03-05 01:45:00,26.1,20.5,29.99,North,352,6.3,9.2,79,0.00,CLR,,0.00,WeatherDisplay:10.37,2013-03-05 07:45:00,
2013-03-05 01:46:00,26.1,20.5,29.99,East,96,3.4,6.9,79,0.00,CLR,,0.00,WeatherDisplay:10.37,2013-03-05 07:46:00,
2013-03-05 01:47:00,26.0,20.4,29.99,East,85,3.3,4.6,79,0.00,CLR,,0.00,WeatherDisplay:10.37,2013-03-05 07:47:00,
2013-03-05 01:50:00,26.1,20.2,29.99,ESE,119,3.5,5.8,78,0.00,CLR,,0.00,WeatherDisplay:10.37,2013-03-05 07:50:00,
2013-03-05 01:51:00,26.1,20.2,29.98,ESE,104,1.3,3.5,78,0.00,CLR,,0.00,WeatherDisplay:10.37,2013-03-05 07:51:00,
2013-03-05 01:52:00,26.1,20.2,29.98,ESE,104,0.4,2.3,78,0.00,CLR,,0.00,WeatherDisplay:10.37,2013-03-05 07:52:00,
2013-03-05 01:55:00,26.1,20.2,29.98,East,86,4.9,9.2,78,0.00,CLR,,0.00,WeatherDisplay:10.37,2013-03-05 07:55:00,
2013-03-05 01:56:00,26.1,20.2,29.98,ESE,109,1.9,8.1,78,0.00,CLR,,0.00,WeatherDisplay:10.37,2013-03-05 07:56:00,
2013-03-05 01:57:00,26.2,20.3,29.98,NE,49,2.1,3.5,78,0.00,CLR,,0.00,WeatherDisplay:10.37,2013-03-05 07:57:00,
2013-03-05 02:00:00,26.2,20.6,29.98,SE,128,1.7,5.8,79,0.00,CLR,,0.00,WeatherDisplay:10.37,2013-03-05 08:00:00,
2013-03-05 02:01:00,26.2,20.6,29.98,East,80,3.3,3.5,79,0.00,CLR,,0.00,WeatherDisplay:10.37,2013-03-05 08:01:00,
2013-03-05 02:02:00,26.3,20.7,29.98,East,95,4.3,8.3,79,0.00,CLR,,0.00,WeatherDisplay:10.37,2013-03-05 08:02:00,
2013-03-05 02:06:00,26.2,20.6,29.97,ESE,113,5.0,6.9,79,0.00,CLR,,0.00,WeatherDisplay:10.37,2013-03-05 08:06:00,
2013-03-05 02:07:00,26.3,20.7,29.97,ENE,64,5.1,6.9,79,0.00,CLR,,0.00,WeatherDisplay:10.37,2013-03-05 08:07:00,
2013-03-05 02:08:00,26.2,20.6,29.97,East,80,3.6,7.1,79,0.00,CLR,,0.00,WeatherDisplay:10.37,2013-03-05 08:08:00,
2013-03-05 02:11:00,26.2,20.6,29.97,NE,41,5.9,10.4,79,0.00,CLR,,0.00,WeatherDisplay:10.37,2013-03-05 08:11:00,
2013-03-05 02:12:00,26.3,20.7,29.97,ENE,59,3.1,10.4,79,0.00,CLR,,0.00,WeatherDisplay:10.37,2013-03-05 08:12:00,
2013-03-05 02:13:00,26.3,20.7,29.97,NE,55,2.9,5.8,79,0.00,CLR,,0.00,WeatherDisplay:10.37,2013-03-05 08:13:00,
2013-03-05 02:17:00,26.3,20.7,29.96,NE,48,3.7,6.9,79,0.00,CLR,,0.00,WeatherDisplay:10.37,2013-03-05 08:17:00,
2013-03-05 02:18:00,26.4,20.8,29.96,ENE,62,5.7,8.1,79,0.00,CLR,,0.00,WeatherDisplay:10.37,2013-03-05 08:18:00,
2013-03-05 02:22:00,26.4,20.8,29.96,NE,42,3.1,5.8,79,0.00,CLR,,0.00,WeatherDisplay:10.37,2013-03-05 08:22:00,
2013-03-05 02:23:00,26.4,20.8,29.96,NNE,20,2.4,4.6,79,0.00,CLR,,0.00,WeatherDisplay:10.37,2013-03-05 08:23:00,
2013-03-05 02:27:00,26.5,20.9,29.96,SE,124,4.7,9.2,79,0.00,CLR,,0.00,WeatherDisplay:10.37,2013-03-05 08:27:00,
2013-03-05 02:28:00,26.5,20.9,29.95,ESE,103,2.7,5.8,79,0.00,CLR,,0.00,WeatherDisplay:10.37,2013-03-05 08:28:00,
2013-03-05 02:32:00,26.5,20.9,29.95,NNE,28,4.9,7.8,79,0.00,CLR,,0.00,WeatherDisplay:10.37,2013-03-05 08:32:00,
2013-03-05 02:33:00,26.5,20.9,29.95,ENE,73,4.8,8.1,79,0.00,CLR,,0.00,WeatherDisplay:10.37,2013-03-05 08:33:00,
2013-03-05 02:37:00,26.5,20.9,29.95,NE,35,3.6,8.1,79,0.00,CLR,,0.00,WeatherDisplay:10.37,2013-03-05 08:37:00,
2013-03-05 02:38:00,26.6,21.0,29.95,ESE,123,3.7,4.4,79,0.00,CLR,,0.00,WeatherDisplay:10.37,2013-03-05 08:38:00,
2013-03-05 02:39:00,26.6,21.0,29.95,ENE,69,5.2,10.4,79,0.00,CLR,,0.00,WeatherDisplay:10.37,2013-03-05 08:39:00,
2013-03-05 02:42:00,26.6,21.0,29.95,NE,55,5.3,8.1,79,0.00,CLR,,0.00,WeatherDisplay:10.37,2013-03-05 08:42:00,
2013-03-05 02:43:00,26.6,21.0,29.95,ENE,73,5.7,8.1,79,0.00,CLR,,0.00,WeatherDisplay:10.37,2013-03-05 08:43:00,
2013-03-05 02:44:00,26.6,21.0,29.95,ENE,58,4.5,8.1,79,0.00,CLR,,0.00,WeatherDisplay:10.37,2013-03-05 08:44:00,
2013-03-05 02:47:00,26.7,21.1,29.95,NE,34,4.8,6.9,79,0.00,CLR,,0.00,WeatherDisplay:10.37,2013-03-05 08:47:00,
2013-03-05 02:48:00,26.7,21.1,29.95,NE,52,4.3,6.9,79,0.00,CLR,,0.00,WeatherDisplay:10.37,2013-03-05 08:48:00,
2013-03-05 02:49:00,26.7,21.1,29.95,ENE,76,3.8,8.7,79,0.00,CLR,,0.00,WeatherDisplay:10.37,2013-03-05 08:49:00,
2013-03-05 02:52:00,26.7,21.1,29.95,NNE,27,4.2,5.8,79,0.00,CLR,,0.00,WeatherDisplay:10.37,2013-03-05 08:52:00,
2013-03-05 02:53:00,26.7,21.1,29.95,ENE,69,4.5,5.8,79,0.00,CLR,,0.00,WeatherDisplay:10.37,2013-03-05 08:53:00,
2013-03-05 02:54:00,26.8,21.2,29.95,East,95,3.6,8.1,79,0.00,CLR,,0.00,WeatherDisplay:10.37,2013-03-05 08:54:00,
2013-03-05 02:57:00,26.8,21.2,29.95,NE,54,4.7,6.8,79,0.00,CLR,,0.00,WeatherDisplay:10.37,2013-03-05 08:57:00,
2013-03-05 02:58:00,26.7,21.1,29.95,ENE,65,4.8,8.1,79,0.00,CLR,,0.00,WeatherDisplay:10.37,2013-03-05 08:58:00,
2013-03-05 02:59:00,26.8,21.2,29.95,ENE,64,4.0,10.4,79,0.00,CLR,,0.00,WeatherDisplay:10.37,2013-03-05 08:59:00,
2013-03-05 03:00:00,26.7,21.1,29.95,ENE,59,4.1,10.4,79,0.00,CLR,,0.00,WeatherDisplay:10.37,2013-03-05 09:00:00,
2013-03-05 03:02:00,26.8,21.2,29.94,NNE,18,5.4,9.2,79,0.00,CLR,,0.00,WeatherDisplay:10.37,2013-03-05 09:02:00,
2013-03-05 03:04:00,26.8,21.2,29.94,NE,37,4.3,6.9,79,0.00,CLR,,0.00,WeatherDisplay:10.37,2013-03-05 09:04:00,
2013-03-05 03:05:00,26.8,21.2,29.94,NNE,25,3.7,5.8,79,0.00,CLR,,0.00,WeatherDisplay:10.37,2013-03-05 09:05:00,
2013-03-05 03:07:00,26.8,21.2,29.94,North,357,3.6,4.6,79,0.00,CLR,,0.00,WeatherDisplay:10.37,2013-03-05 09:07:00,
2013-03-05 03:09:00,26.8,21.2,29.94,ENE,64,4.6,5.8,79,0.00,CLR,,0.00,WeatherDisplay:10.37,2013-03-05 09:09:00,
2013-03-05 03:10:00,26.8,21.2,29.94,East,79,3.8,6.7,79,0.00,CLR,,0.00,WeatherDisplay:10.37,2013-03-05 09:10:00,
2013-03-05 03:13:00,26.8,21.2,29.94,NE,40,3.7,4.6,79,0.00,CLR,,0.00,WeatherDisplay:10.37,2013-03-05 09:13:00,
2013-03-05 03:14:00,26.8,21.2,29.94,ENE,68,4.6,6.9,79,0.00,CLR,,0.00,WeatherDisplay:10.37,2013-03-05 09:14:00,
2013-03-05 03:15:00,26.7,21.1,29.94,ENE,65,5.5,6.9,79,0.00,CLR,,0.00,WeatherDisplay:10.37,2013-03-05 09:15:00,
2013-03-05 03:18:00,26.7,21.1,29.94,NNE,16,4.6,8.1,79,0.00,CLR,,0.00,WeatherDisplay:10.37,2013-03-05 09:18:00,
2013-03-05 03:19:00,26.6,21.0,29.93,NE,38,4.2,6.9,79,0.00,CLR,,0.00,WeatherDisplay:10.37,2013-03-05 09:19:00,
2013-03-05 03:20:00,26.7,21.1,29.93,NE,41,4.1,8.6,79,0.00,CLR,,0.00,WeatherDisplay:10.37,2013-03-05 09:20:00,
2013-03-05 03:23:00,26.6,21.0,29.93,NE,52,4.2,6.9,79,0.00,CLR,,0.00,WeatherDisplay:10.37,2013-03-05 09:23:00,
2013-03-05 03:24:00,26.6,21.0,29.93,ESE,120,2.5,5.8,79,0.00,CLR,,0.00,WeatherDisplay:10.37,2013-03-05 09:24:00,
2013-03-05 03:25:00,26.7,21.1,29.93,NNE,24,4.6,7.0,79,0.00,CLR,,0.00,WeatherDisplay:10.37,2013-03-05 09:25:00,
2013-03-05 03:28:00,26.6,21.0,29.93,NNE,32,4.5,7.1,79,0.00,CLR,,0.00,WeatherDisplay:10.37,2013-03-05 09:28:00,
2013-03-05 03:29:00,26.5,20.9,29.93,ENE,73,4.8,9.2,79,0.00,CLR,,0.00,WeatherDisplay:10.37,2013-03-05 09:29:00,
2013-03-05 03:30:00,26.6,21.0,29.93,ENE,62,3.3,7.3,79,0.00,CLR,,0.00,WeatherDisplay:10.37,2013-03-05 09:30:00,
2013-03-05 03:31:00,26.5,20.9,29.93,ESE,121,4.7,6.8,79,0.00,CLR,,0.00,WeatherDisplay:10.37,2013-03-05 09:31:00,
2013-03-05 03:33:00,26.5,20.9,29.93,NE,37,5.9,9.2,79,0.00,CLR,,0.00,WeatherDisplay:10.37,2013-03-05 09:33:00,
2013-03-05 03:34:00,26.5,20.9,29.93,ESE,109,5.7,7.1,79,0.00,CLR,,0.00,WeatherDisplay:10.37,2013-03-05 09:34:00,
2013-03-05 03:35:00,26.5,20.9,29.93,NNE,25,5.5,9.2,79,0.00,CLR,,0.00,WeatherDisplay:10.37,2013-03-05 09:35:00,
2013-03-05 03:36:00,26.5,20.9,29.93,NE,37,4.7,9.2,79,0.00,CLR,,0.00,WeatherDisplay:10.37,2013-03-05 09:36:00,
2013-03-05 03:38:00,26.4,21.1,29.93,ENE,71,6.3,7.6,80,0.00,CLR,,0.00,WeatherDisplay:10.37,2013-03-05 09:38:00,
2013-03-05 03:39:00,26.4,21.1,29.93,East,90,5.2,11.5,80,0.00,CLR,,0.00,WeatherDisplay:10.37,2013-03-05 09:39:00,
2013-03-05 03:40:00,26.5,21.2,29.93,NE,42,3.3,6.9,80,0.00,CLR,,0.00,WeatherDisplay:10.37,2013-03-05 09:40:00,
2013-03-05 03:41:00,26.5,21.2,29.93,NE,37,2.5,4.6,80,0.00,CLR,,0.00,WeatherDisplay:10.37,2013-03-05 09:41:00,
2013-03-05 03:43:00,26.4,21.1,29.93,East,83,4.9,6.9,80,0.00,CLR,,0.00,WeatherDisplay:10.37,2013-03-05 09:43:00,
2013-03-05 03:44:00,26.4,21.1,29.93,SE,131,3.6,6.9,80,0.00,CLR,,0.00,WeatherDisplay:10.37,2013-03-05 09:44:00,
2013-03-05 03:45:00,26.4,21.1,29.93,East,83,5.6,7.8,80,0.00,CLR,,0.00,WeatherDisplay:10.37,2013-03-05 09:45:00,
2013-03-05 03:46:00,26.4,21.1,29.93,East,86,5.3,8.1,80,0.00,CLR,,0.00,WeatherDisplay:10.37,2013-03-05 09:46:00,
2013-03-05 03:48:00,26.4,21.1,29.93,ENE,58,5.8,10.4,80,0.00,CLR,,0.00,WeatherDisplay:10.37,2013-03-05 09:48:00,
2013-03-05 03:49:00,26.4,21.1,29.93,NE,42,6.4,8.1,80,0.00,CLR,,0.00,WeatherDisplay:10.37,2013-03-05 09:49:00,
2013-03-05 03:50:00,26.4,21.1,29.93,East,80,4.9,9.2,80,0.00,CLR,,0.00,WeatherDisplay:10.37,2013-03-05 09:50:00,
2013-03-05 03:51:00,26.4,21.1,29.93,NE,35,4.5,9.2,80,0.00,CLR,,0.00,WeatherDisplay:10.37,2013-03-05 09:51:00,
2013-03-05 03:53:00,26.3,21.0,29.93,NNE,31,5.4,8.1,80,0.00,CLR,,0.00,WeatherDisplay:10.37,2013-03-05 09:53:00,
2013-03-05 03:54:00,26.4,21.1,29.93,East,95,2.9,5.8,80,0.00,CLR,,0.00,WeatherDisplay:10.37,2013-03-05 09:54:00,
2013-03-05 03:55:00,26.4,21.1,29.93,ENE,68,4.6,6.9,80,0.00,CLR,,0.00,WeatherDisplay:10.37,2013-03-05 09:55:00,
2013-03-05 03:56:00,26.3,21.0,29.93,ENE,64,4.4,6.9,80,0.00,CLR,,0.00,WeatherDisplay:10.37,2013-03-05 09:56:00,
2013-03-05 03:59:00,26.3,21.0,29.93,North,360,3.2,7.8,80,0.00,CLR,,0.00,WeatherDisplay:10.37,2013-03-05 09:59:00,
2013-03-05 04:00:00,26.3,21.0,29.93,NE,49,2.2,6.9,80,0.00,CLR,,0.00,WeatherDisplay:10.37,2013-03-05 10:00:00,
2013-03-05 04:01:00,26.3,21.0,29.93,NE,54,3.0,4.6,80,0.00,CLR,,0.00,WeatherDisplay:10.37,2013-03-05 10:01:00,
2013-03-05 04:04:00,26.3,21.0,29.93,East,96,3.0,6.9,80,0.00,CLR,,0.00,WeatherDisplay:10.37,2013-03-05 10:04:00,
2013-03-05 04:06:00,26.3,21.0,29.93,NE,55,4.3,6.9,80,0.00,CLR,,0.00,WeatherDisplay:10.37,2013-03-05 10:06:00,
2013-03-05 04:07:00,26.3,21.0,29.93,NE,42,3.8,5.8,80,0.00,CLR,,0.00,WeatherDisplay:10.37,2013-03-05 10:07:00,
2013-03-05 04:09:00,26.3,21.0,29.93,NNE,27,4.8,8.1,80,0.00,CLR,,0.00,WeatherDisplay:10.37,2013-03-05 10:09:00,
2013-03-05 04:10:00,26.3,21.0,29.93,East,80,5.6,8.1,80,0.00,CLR,,0.00,WeatherDisplay:10.37,2013-03-05 10:10:00,
2013-03-05 04:11:00,26.3,21.0,29.93,East,79,3.9,6.9,80,0.00,CLR,,0.00,WeatherDisplay:10.37,2013-03-05 10:11:00,
2013-03-05 04:12:00,26.3,21.0,29.93,NE,48,5.2,6.9,80,0.00,CLR,,0.00,WeatherDisplay:10.37,2013-03-05 10:12:00,
2013-03-05 04:14:00,26.3,21.0,29.93,ENE,62,4.7,6.9,80,0.00,CLR,,0.00,WeatherDisplay:10.37,2013-03-05 10:14:00,
2013-03-05 04:15:00,26.2,20.9,29.93,NE,42,3.8,7.3,80,0.00,CLR,,0.00,WeatherDisplay:10.37,2013-03-05 10:15:00,
2013-03-05 04:16:00,26.3,21.0,29.93,NE,51,5.8,8.1,80,0.00,CLR,,0.00,WeatherDisplay:10.37,2013-03-05 10:16:00,
2013-03-05 04:17:00,26.3,21.0,29.93,NE,49,5.0,9.2,80,0.00,CLR,,0.00,WeatherDisplay:10.37,2013-03-05 10:17:00,
2013-03-05 04:19:00,26.2,20.9,29.93,ENE,62,3.3,6.9,80,0.00,CLR,,0.00,WeatherDisplay:10.37,2013-03-05 10:19:00,
2013-03-05 04:20:00,26.2,20.9,29.93,ENE,59,3.5,5.0,80,0.00,CLR,,0.00,WeatherDisplay:10.37,2013-03-05 10:20:00,
2013-03-05 04:21:00,26.3,21.0,29.93,NNE,21,5.7,9.2,80,0.00,CLR,,0.00,WeatherDisplay:10.37,2013-03-05 10:21:00,
2013-03-05 04:22:00,26.2,20.9,29.93,NE,41,3.2,5.8,80,0.00,CLR,,0.00,WeatherDisplay:10.37,2013-03-05 10:22:00,
2013-03-05 04:24:00,26.3,21.0,29.93,ESE,113,4.5,6.9,80,0.00,CLR,,0.00,WeatherDisplay:10.37,2013-03-05 10:24:00,
2013-03-05 04:25:00,26.2,20.9,29.93,ENE,76,4.1,6.9,80,0.00,CLR,,0.00,WeatherDisplay:10.37,2013-03-05 10:25:00,
2013-03-05 04:26:00,26.3,21.0,29.93,NE,51,4.0,5.8,80,0.00,CLR,,0.00,WeatherDisplay:10.37,2013-03-05 10:26:00,
2013-03-05 04:27:00,26.2,20.9,29.93,NE,40,3.8,5.8,80,0.00,CLR,,0.00,WeatherDisplay:10.37,2013-03-05 10:27:00,
2013-03-05 04:30:00,26.2,20.9,29.93,ENE,64,4.8,8.1,80,0.00,CLR,,0.00,WeatherDisplay:10.37,2013-03-05 10:30:00,
2013-03-05 04:31:00,26.2,20.9,29.93,ENE,59,6.1,9.2,80,0.00,CLR,,0.00,WeatherDisplay:10.37,2013-03-05 10:31:00,
2013-03-05 04:32:00,26.3,21.0,29.93,ENE,62,4.5,8.1,80,0.00,CLR,,0.00,WeatherDisplay:10.37,2013-03-05 10:32:00,
2013-03-05 04:35:00,26.2,20.9,29.92,NE,54,5.0,6.9,80,0.00,CLR,,0.00,WeatherDisplay:10.37,2013-03-05 10:35:00,
2013-03-05 04:36:00,26.2,20.9,29.92,ENE,73,5.2,8.1,80,0.00,CLR,,0.00,WeatherDisplay:10.37,2013-03-05 10:36:00,
2013-03-05 04:37:00,26.2,20.9,29.92,East,100,6.5,10.4,80,0.00,CLR,,0.00,WeatherDisplay:10.37,2013-03-05 10:37:00,
2013-03-05 04:40:00,26.2,20.9,29.92,NE,49,4.8,8.1,80,0.00,CLR,,0.00,WeatherDisplay:10.37,2013-03-05 10:40:00,
2013-03-05 04:41:00,26.2,20.9,29.92,NE,54,4.2,6.9,80,0.00,CLR,,0.00,WeatherDisplay:10.37,2013-03-05 10:41:00,
2013-03-05 04:42:00,26.1,20.8,29.92,ENE,58,5.0,9.0,80,0.00,CLR,,0.00,WeatherDisplay:10.37,2013-03-05 10:42:00,
2013-03-05 04:43:00,26.2,20.9,29.92,NNE,24,6.3,10.4,80,0.00,CLR,,0.00,WeatherDisplay:10.37,2013-03-05 10:43:00,
2013-03-05 04:45:00,26.2,20.9,29.92,NE,47,5.0,6.9,80,0.00,CLR,,0.00,WeatherDisplay:10.37,2013-03-05 10:45:00,
2013-03-05 04:46:00,26.2,20.9,29.92,NNE,25,4.8,9.2,80,0.00,CLR,,0.00,WeatherDisplay:10.37,2013-03-05 10:46:00,
2013-03-05 04:47:00,26.2,20.9,29.92,NNE,30,3.6,4.6,80,0.00,CLR,,0.00,WeatherDisplay:10.37,2013-03-05 10:47:00,
2013-03-05 04:48:00,26.1,20.8,29.92,NE,51,2.7,3.5,80,0.00,CLR,,0.00,WeatherDisplay:10.37,2013-03-05 10:48:00,
2013-03-05 04:50:00,26.1,20.8,29.92,NE,48,4.6,6.9,80,0.00,CLR,,0.00,WeatherDisplay:10.37,2013-03-05 10:50:00,
2013-03-05 04:51:00,26.2,20.9,29.92,NE,42,2.1,4.6,80,0.00,CLR,,0.00,WeatherDisplay:10.37,2013-03-05 10:51:00,
2013-03-05 04:52:00,26.1,20.8,29.92,North,8,2.2,3.5,80,0.00,CLR,,0.00,WeatherDisplay:10.37,2013-03-05 10:52:00,
2013-03-05 04:53:00,26.1,20.8,29.92,NE,47,3.3,4.8,80,0.00,CLR,,0.00,WeatherDisplay:10.37,2013-03-05 10:53:00,
2013-03-05 04:55:00,26.2,20.9,29.92,NE,47,3.5,5.8,80,0.00,CLR,,0.00,WeatherDisplay:10.37,2013-03-05 10:55:00,
2013-03-05 04:56:00,26.1,20.8,29.92,East,86,4.7,6.9,80,0.00,CLR,,0.00,WeatherDisplay:10.37,2013-03-05 10:56:00,
2013-03-05 04:57:00,26.1,20.8,29.92,NE,44,2.9,6.9,80,0.00,CLR,,0.00,WeatherDisplay:10.37,2013-03-05 10:57:00,
2013-03-05 04:58:00,26.1,20.8,29.92,ENE,68,4.4,8.1,80,0.00,CLR,,0.00,WeatherDisplay:10.37,2013-03-05 10:58:00,
2013-03-05 05:00:00,26.1,20.8,29.92,NE,45,6.9,8.1,80,0.00,CLR,,0.00,WeatherDisplay:10.37,2013-03-05 11:00:00,
2013-03-05 05:01:00,26.1,20.8,29.92,East,80,5.3,11.5,80,0.00,CLR,,0.00,WeatherDisplay:10.37,2013-03-05 11:01:00,
2013-03-05 05:03:00,26.2,20.9,29.92,East,89,3.0,4.6,80,0.00,CLR,,0.00,WeatherDisplay:10.37,2013-03-05 11:03:00,
2013-03-05 05:05:00,26.2,20.9,29.92,ENE,61,3.3,4.6,80,0.00,CLR,,0.00,WeatherDisplay:10.37,2013-03-05 11:05:00,
2013-03-05 05:06:00,26.2,20.9,29.92,NE,44,5.2,6.9,80,0.00,CLR,,0.00,WeatherDisplay:10.37,2013-03-05 11:06:00,
2013-03-05 05:08:00,26.1,20.8,29.92,ENE,72,4.3,6.9,80,0.00,CLR,,0.00,WeatherDisplay:10.37,2013-03-05 11:08:00,
2013-03-05 05:11:00,26.2,20.9,29.92,East,82,2.5,3.5,80,0.00,CLR,,0.00,WeatherDisplay:10.37,2013-03-05 11:11:00,
2013-03-05 05:13:00,26.1,20.8,29.92,NNE,23,4.6,8.1,80,0.00,CLR,,0.00,WeatherDisplay:10.37,2013-03-05 11:13:00,
2013-03-05 05:16:00,26.1,20.8,29.92,NE,42,4.6,5.8,80,0.00,CLR,,0.00,WeatherDisplay:10.37,2013-03-05 11:16:00,
2013-03-05 05:17:00,26.2,20.9,29.92,NE,48,3.0,6.9,80,0.00,CLR,,0.00,WeatherDisplay:10.37,2013-03-05 11:17:00,
2013-03-05 05:18:00,26.2,20.9,29.92,East,92,3.4,6.5,80,0.00,CLR,,0.00,WeatherDisplay:10.37,2013-03-05 11:18:00,
2013-03-05 05:21:00,26.2,20.9,29.92,NE,49,2.8,4.6,80,0.00,CLR,,0.00,WeatherDisplay:10.37,2013-03-05 11:21:00,
2013-03-05 05:22:00,26.2,20.9,29.92,ENE,72,4.8,6.9,80,0.00,CLR,,0.00,WeatherDisplay:10.37,2013-03-05 11:22:00,
2013-03-05 05:23:00,26.2,20.9,29.92,NE,56,4.0,6.9,80,0.00,CLR,,0.00,WeatherDisplay:10.37,2013-03-05 11:23:00,
2013-03-05 05:26:00,26.2,20.9,29.92,NE,55,3.7,5.8,80,0.00,CLR,,0.00,WeatherDisplay:10.37,2013-03-05 11:26:00,
2013-03-05 05:27:00,26.2,20.9,29.92,NE,52,3.8,5.5,80,0.00,CLR,,0.00,WeatherDisplay:10.37,2013-03-05 11:27:00,
2013-03-05 05:28:00,26.2,20.9,29.92,NE,42,1.6,6.9,80,0.00,CLR,,0.00,WeatherDisplay:10.37,2013-03-05 11:28:00,
2013-03-05 05:31:00,26.2,20.9,29.92,ENE,61,4.3,6.9,80,0.00,CLR,,0.00,WeatherDisplay:10.37,2013-03-05 11:31:00,
2013-03-05 05:32:00,26.1,20.8,29.92,ENE,68,3.8,5.8,80,0.00,CLR,,0.00,WeatherDisplay:10.37,2013-03-05 11:32:00,
2013-03-05 05:33:00,26.2,20.9,29.91,ESE,109,2.6,6.9,80,0.00,CLR,,0.00,WeatherDisplay:10.37,2013-03-05 11:33:00,
2013-03-05 05:34:00,26.2,20.9,29.91,NNE,28,4.7,9.2,80,0.00,CLR,,0.00,WeatherDisplay:10.37,2013-03-05 11:34:00,
2013-03-05 05:36:00,26.2,20.9,29.91,ENE,66,4.6,9.2,80,0.00,CLR,,0.00,WeatherDisplay:10.37,2013-03-05 11:36:00,
2013-03-05 05:37:00,26.2,20.9,29.91,East,92,3.7,9.2,80,0.00,CLR,,0.00,WeatherDisplay:10.37,2013-03-05 11:37:00,
2013-03-05 05:38:00,26.2,20.9,29.91,East,96,4.3,5.6,80,0.00,CLR,,0.00,WeatherDisplay:10.37,2013-03-05 11:38:00,
2013-03-05 05:39:00,26.2,20.9,29.91,ENE,75,5.0,8.1,80,0.00,CLR,,0.00,WeatherDisplay:10.37,2013-03-05 11:39:00,
2013-03-05 05:41:00,26.3,21.0,29.91,ENE,59,3.8,7.6,80,0.00,CLR,,0.00,WeatherDisplay:10.37,2013-03-05 11:41:00,
2013-03-05 05:42:00,26.3,21.0,29.91,NNE,23,4.1,8.1,80,0.00,CLR,,0.00,WeatherDisplay:10.37,2013-03-05 11:42:00,
2013-03-05 05:43:00,26.3,21.0,29.91,NNE,25,3.2,6.9,80,0.00,CLR,,0.00,WeatherDisplay:10.37,2013-03-05 11:43:00,
2013-03-05 05:44:00,26.3,21.0,29.91,NE,42,4.5,8.1,80,0.00,CLR,,0.00,WeatherDisplay:10.37,2013-03-05 11:44:00,
2013-03-05 05:46:00,26.3,21.0,29.91,NE,40,3.8,5.8,80,0.00,CLR,,0.00,WeatherDisplay:10.37,2013-03-05 11:46:00,
2013-03-05 05:47:00,26.2,20.9,29.91,ENE,58,2.5,5.8,80,0.00,CLR,,0.00,WeatherDisplay:10.37,2013-03-05 11:47:00,
2013-03-05 05:48:00,26.3,21.0,29.91,ENE,78,3.0,6.0,80,0.00,CLR,,0.00,WeatherDisplay:10.37,2013-03-05 11:48:00,
2013-03-05 05:49:00,26.3,21.0,29.91,NE,47,3.8,5.8,80,0.00,CLR,,0.00,WeatherDisplay:10.37,2013-03-05 11:49:00,
2013-03-05 05:51:00,26.2,20.9,29.91,NE,56,3.9,5.8,80,0.00,CLR,,0.00,WeatherDisplay:10.37,2013-03-05 11:51:00,
2013-03-05 05:52:00,26.3,21.0,29.91,NE,45,1.3,3.5,80,0.00,CLR,,0.00,WeatherDisplay:10.37,2013-03-05 11:52:00,
2013-03-05 05:54:00,26.3,21.0,29.91,ENE,68,3.4,3.4,80,0.00,CLR,,0.00,WeatherDisplay:10.37,2013-03-05 11:54:00,
2013-03-05 05:56:00,26.3,21.0,29.91,NNE,21,2.6,4.6,80,0.00,CLR,,0.00,WeatherDisplay:10.37,2013-03-05 11:56:00,
2013-03-05 05:57:00,26.4,21.1,29.91,SE,130,3.3,3.5,80,0.00,CLR,,0.00,WeatherDisplay:10.37,2013-03-05 11:57:00,
2013-03-05 05:59:00,26.3,21.0,29.91,NE,52,1.7,4.6,80,0.00,CLR,,0.00,WeatherDisplay:10.37,2013-03-05 11:59:00,
2013-03-05 06:01:00,26.3,21.0,29.91,ENE,66,2.7,4.6,80,0.00,CLR,,0.00,WeatherDisplay:10.37,2013-03-05 12:01:00,
2013-03-05 06:02:00,26.4,21.1,29.91,ENE,69,3.8,4.0,80,0.00,CLR,,0.00,WeatherDisplay:10.37,2013-03-05 12:02:00,
2013-03-05 06:04:00,26.4,21.1,29.91,NNE,16,0.0,1.1,80,0.00,CLR,,0.00,WeatherDisplay:10.37,2013-03-05 12:04:00,
2013-03-05 06:07:00,26.4,21.1,29.91,NE,56,4.4,4.6,80,0.00,CLR,,0.00,WeatherDisplay:10.37,2013-03-05 12:07:00,
2013-03-05 06:09:00,26.4,21.1,29.91,ENE,58,4.8,7.1,80,0.00,CLR,,0.00,WeatherDisplay:10.37,2013-03-05 12:09:00,
2013-03-05 06:12:00,26.4,21.1,29.91,NNE,25,0.0,2.4,80,0.00,CLR,,0.00,WeatherDisplay:10.37,2013-03-05 12:12:00,
2013-03-05 06:13:00,26.4,21.1,29.91,ENE,62,3.6,8.1,80,0.00,CLR,,0.00,WeatherDisplay:10.37,2013-03-05 12:13:00,
2013-03-05 06:14:00,26.4,21.1,29.91,NE,35,1.8,5.8,80,0.00,CLR,,0.00,WeatherDisplay:10.37,2013-03-05 12:14:00,
2013-03-05 06:17:00,26.5,21.2,29.91,NNE,24,3.8,5.8,80,0.00,CLR,,0.00,WeatherDisplay:10.37,2013-03-05 12:17:00,
2013-03-05 06:18:00,26.4,21.1,29.91,NNE,31,3.5,6.9,80,0.00,CLR,,0.00,WeatherDisplay:10.37,2013-03-05 12:18:00,
2013-03-05 06:19:00,26.5,21.2,29.91,ESE,116,4.7,4.7,80,0.00,CLR,,0.00,WeatherDisplay:10.37,2013-03-05 12:19:00,
2013-03-05 06:22:00,26.5,21.2,29.91,NE,51,4.1,6.9,80,0.00,CLR,,0.00,WeatherDisplay:10.37,2013-03-05 12:22:00,
2013-03-05 06:23:00,26.5,21.2,29.91,NE,44,2.9,5.8,80,0.00,CLR,,0.00,WeatherDisplay:10.37,2013-03-05 12:23:00,
2013-03-05 06:24:00,26.5,21.2,29.91,NE,45,3.1,4.8,80,0.00,CLR,,0.00,WeatherDisplay:10.37,2013-03-05 12:24:00,
2013-03-05 06:27:00,26.5,21.2,29.91,NNE,23,2.3,5.8,80,0.00,CLR,,0.00,WeatherDisplay:10.37,2013-03-05 12:27:00,
2013-03-05 06:28:00,26.6,21.3,29.91,NE,38,0.5,3.5,80,0.00,CLR,,0.00,WeatherDisplay:10.37,2013-03-05 12:28:00,
2013-03-05 06:29:00,26.6,21.3,29.91,NE,38,0.0,1.1,80,0.00,CLR,,0.00,WeatherDisplay:10.37,2013-03-05 12:29:00,
2013-03-05 06:30:00,26.5,21.2,29.91,NE,38,0.0,0.0,80,0.00,CLR,,0.00,WeatherDisplay:10.37,2013-03-05 12:30:00,
2013-03-05 06:32:00,26.5,21.2,29.91,NE,51,3.9,5.8,80,0.00,CLR,,0.00,WeatherDisplay:10.37,2013-03-05 12:32:00,
2013-03-05 06:33:00,26.6,21.3,29.91,ENE,66,5.4,5.8,80,0.00,CLR,,0.00,WeatherDisplay:10.37,2013-03-05 12:33:00,
2013-03-05 06:35:00,26.6,21.3,29.91,NNE,32,1.2,8.1,80,0.00,CLR,,0.00,WeatherDisplay:10.37,2013-03-05 12:35:00,
2013-03-05 06:37:00,26.6,21.3,29.91,ENE,58,0.2,3.5,80,0.00,CLR,,0.00,WeatherDisplay:10.37,2013-03-05 12:37:00,
2013-03-05 06:38:00,26.6,21.3,29.91,ESE,102,0.9,1.2,80,0.00,CLR,,0.00,WeatherDisplay:10.37,2013-03-05 12:38:00,
2013-03-05 06:40:00,26.6,21.3,29.91,NE,35,1.7,4.6,80,0.00,CLR,,0.00,WeatherDisplay:10.37,2013-03-05 12:40:00,
2013-03-05 06:42:00,26.7,21.4,29.92,NNE,27,1.2,2.4,80,0.00,CLR,,0.00,WeatherDisplay:10.37,2013-03-05 12:42:00,
2013-03-05 06:44:00,26.7,21.4,29.91,NNE,28,2.3,3.5,80,0.00,CLR,,0.00,WeatherDisplay:10.37,2013-03-05 12:44:00,
2013-03-05 06:45:00,26.7,21.4,29.91,NE,35,1.6,3.5,80,0.00,CLR,,0.00,WeatherDisplay:10.37,2013-03-05 12:45:00,
2013-03-05 06:47:00,26.7,21.4,29.91,NE,44,2.8,4.6,80,0.00,CLR,,0.00,WeatherDisplay:10.37,2013-03-05 12:47:00,
2013-03-05 06:49:00,26.7,21.4,29.91,NE,34,4.2,5.8,80,0.00,CLR,,0.00,WeatherDisplay:10.37,2013-03-05 12:49:00,
2013-03-05 06:50:00,26.7,21.4,29.91,NE,56,3.9,6.9,80,0.00,CLR,,0.00,WeatherDisplay:10.37,2013-03-05 12:50:00,
2013-03-05 06:52:00,26.7,21.4,29.91,NE,56,2.8,5.8,80,0.00,CLR,,0.00,WeatherDisplay:10.37,2013-03-05 12:52:00,
2013-03-05 06:54:00,26.7,21.4,29.91,NE,40,2.3,3.5,80,0.00,CLR,,0.00,WeatherDisplay:10.37,2013-03-05 12:54:00,
2013-03-05 06:55:00,26.7,21.4,29.91,NNE,24,0.1,2.3,80,0.00,CLR,,0.00,WeatherDisplay:10.37,2013-03-05 12:55:00,
2013-03-05 06:56:00,26.7,21.4,29.91,NNE,24,0.0,0.0,80,0.00,CLR,,0.00,WeatherDisplay:10.37,2013-03-05 12:56:00,
2013-03-05 06:58:00,26.8,21.5,29.91,NE,52,3.4,5.8,80,0.00,CLR,,0.00,WeatherDisplay:10.37,2013-03-05 12:58:00,
2013-03-05 06:59:00,26.8,21.5,29.91,NNE,23,3.1,4.6,80,0.00,CLR,,0.00,WeatherDisplay:10.37,2013-03-05 12:59:00,
2013-03-05 07:00:00,26.8,21.5,29.92,NE,42,2.5,4.6,80,0.00,CLR,,0.00,WeatherDisplay:10.37,2013-03-05 13:00:00,
2013-03-05 07:01:00,26.8,21.5,29.92,North,11,2.7,3.5,80,0.00,CLR,,0.00,WeatherDisplay:10.37,2013-03-05 13:01:00,
2013-03-05 07:03:00,26.8,21.5,29.92,NNE,17,0.8,3.6,80,0.00,CLR,,0.00,WeatherDisplay:10.37,2013-03-05 13:03:00,
2013-03-05 07:04:00,26.9,21.6,29.92,ENE,58,0.2,4.6,80,0.00,CLR,,0.00,WeatherDisplay:10.37,2013-03-05 13:04:00,
2013-03-05 07:05:00,26.8,21.5,29.92,NNE,24,0.6,3.9,80,0.00,CLR,,0.00,WeatherDisplay:10.37,2013-03-05 13:05:00,
2013-03-05 07:06:00,26.8,21.5,29.92,NE,52,2.0,3.5,80,0.00,CLR,,0.00,WeatherDisplay:10.37,2013-03-05 13:06:00,
2013-03-05 07:08:00,26.9,21.6,29.92,NE,55,3.6,4.6,80,0.00,CLR,,0.00,WeatherDisplay:10.37,2013-03-05 13:08:00,
2013-03-05 07:09:00,26.9,21.6,29.92,NNE,24,0.7,3.5,80,0.00,CLR,,0.00,WeatherDisplay:10.37,2013-03-05 13:09:00,
2013-03-05 07:11:00,26.9,21.6,29.92,ENE,75,3.3,4.6,80,0.00,CLR,,0.00,WeatherDisplay:10.37,2013-03-05 13:11:00,
2013-03-05 07:13:00,26.9,21.6,29.92,NE,34,3.3,11.5,80,0.00,CLR,,0.00,WeatherDisplay:10.37,2013-03-05 13:13:00,
2013-03-05 07:14:00,26.9,21.6,29.92,NE,51,3.0,3.5,80,0.00,CLR,,0.00,WeatherDisplay:10.37,2013-03-05 13:14:00,
2013-03-05 07:16:00,26.9,21.6,29.92,NE,37,2.4,5.9,80,0.00,CLR,,0.00,WeatherDisplay:10.37,2013-03-05 13:16:00,
2013-03-05 07:17:00,26.9,21.6,29.92,NE,47,4.4,5.8,80,0.00,CLR,,0.00,WeatherDisplay:10.37,2013-03-05 13:17:00,
2013-03-05 07:18:00,26.9,21.6,29.92,NNE,31,2.7,4.6,80,0.00,CLR,,0.00,WeatherDisplay:10.37,2013-03-05 13:18:00,
2013-03-05 07:19:00,27.0,21.7,29.92,NE,44,1.6,4.6,80,0.00,CLR,,0.00,WeatherDisplay:10.37,2013-03-05 13:19:00,
2013-03-05 07:21:00,27.0,21.7,29.92,NE,38,0.4,4.6,80,0.00,CLR,,0.00,WeatherDisplay:10.37,2013-03-05 13:21:00,
2013-03-05 07:22:00,27.0,21.7,29.92,ENE,64,0.5,3.6,80,0.00,CLR,,0.00,WeatherDisplay:10.37,2013-03-05 13:22:00,
2013-03-05 07:23:00,27.0,21.7,29.92,ENE,59,1.8,4.6,80,0.00,CLR,,0.00,WeatherDisplay:10.37,2013-03-05 13:23:00,
2013-03-05 07:24:00,27.0,21.7,29.92,NNE,24,1.2,2.6,80,0.00,CLR,,0.00,WeatherDisplay:10.37,2013-03-05 13:24:00,
2013-03-05 07:26:00,27.0,21.7,29.92,ENE,61,3.0,4.6,80,0.00,CLR,,0.00,WeatherDisplay:10.37,2013-03-05 13:26:00,
2013-03-05 07:27:00,26.9,21.6,29.92,NNE,32,2.9,4.6,80,0.00,CLR,,0.00,WeatherDisplay:10.37,2013-03-05 13:27:00,
2013-03-05 07:28:00,27.0,21.7,29.92,NE,37,0.6,3.5,80,0.00,CLR,,0.00,WeatherDisplay:10.37,2013-03-05 13:28:00,
2013-03-05 07:29:00,27.0,21.7,29.92,NE,34,2.1,4.6,80,0.00,CLR,,0.00,WeatherDisplay:10.37,2013-03-05 13:29:00,
2013-03-05 07:32:00,27.0,21.7,29.92,NNE,24,0.7,2.3,80,0.00,CLR,,0.00,WeatherDisplay:10.37,2013-03-05 13:32:00,
2013-03-05 07:33:00,27.0,21.7,29.92,NNE,24,0.0,0.0,80,0.00,CLR,,0.00,WeatherDisplay:10.37,2013-03-05 13:33:00,
2013-03-05 07:34:00,27.0,21.7,29.92,NNE,30,2.6,3.8,80,0.00,CLR,,0.00,WeatherDisplay:10.37,2013-03-05 13:34:00,
2013-03-05 07:37:00,27.0,21.7,29.92,ENE,66,3.7,5.8,80,0.00,CLR,,0.00,WeatherDisplay:10.37,2013-03-05 13:37:00,
2013-03-05 07:38:00,27.1,21.7,29.92,NE,38,3.8,5.8,80,0.00,CLR,,0.00,WeatherDisplay:10.37,2013-03-05 13:38:00,
2013-03-05 07:40:00,27.0,21.7,29.92,ENE,71,3.3,4.6,80,0.00,CLR,,0.00,WeatherDisplay:10.37,2013-03-05 13:40:00,
2013-03-05 07:42:00,27.0,21.7,29.92,NNE,18,3.3,6.9,80,0.00,CLR,,0.00,WeatherDisplay:10.37,2013-03-05 13:42:00,
2013-03-05 07:43:00,27.0,21.7,29.92,NNE,23,0.9,3.5,80,0.00,CLR,,0.00,WeatherDisplay:10.37,2013-03-05 13:43:00,
2013-03-05 07:45:00,27.0,21.7,29.92,NNE,24,3.0,3.9,80,0.00,CLR,,0.00,WeatherDisplay:10.37,2013-03-05 13:45:00,
2013-03-05 07:47:00,27.0,21.9,29.92,NNE,27,3.3,4.6,81,0.00,CLR,,0.00,WeatherDisplay:10.37,2013-03-05 13:47:00,
2013-03-05 07:48:00,27.0,21.9,29.92,North,7,3.0,4.6,81,0.00,CLR,,0.00,WeatherDisplay:10.37,2013-03-05 13:48:00,
2013-03-05 07:49:00,26.9,21.8,29.92,ENE,73,4.6,5.9,81,0.00,CLR,,0.00,WeatherDisplay:10.37,2013-03-05 13:49:00,
2013-03-05 07:50:00,27.0,21.9,29.92,NNE,16,4.3,6.9,81,0.00,CLR,,0.00,WeatherDisplay:10.37,2013-03-05 13:50:00,
2013-03-05 07:52:00,26.9,21.8,29.92,NE,42,2.9,5.8,81,0.00,CLR,,0.00,WeatherDisplay:10.37,2013-03-05 13:52:00,
2013-03-05 07:53:00,26.9,21.8,29.92,NNE,13,2.4,4.6,81,0.00,CLR,,0.00,WeatherDisplay:10.37,2013-03-05 13:53:00,
2013-03-05 07:54:00,26.8,21.8,29.92,East,97,3.8,4.8,81,0.00,CLR,,0.00,WeatherDisplay:10.37,2013-03-05 13:54:00,
2013-03-05 07:55:00,26.8,21.8,29.92,NNE,18,2.6,4.6,81,0.00,CLR,,0.00,WeatherDisplay:10.37,2013-03-05 13:55:00,
2013-03-05 07:57:00,26.8,21.8,29.92,NE,48,3.0,4.0,81,0.00,CLR,,0.00,WeatherDisplay:10.37,2013-03-05 13:57:00,
2013-03-05 07:58:00,26.9,21.8,29.92,East,92,1.3,4.6,81,0.00,CLR,,0.00,WeatherDisplay:10.37,2013-03-05 13:58:00,
2013-03-05 07:59:00,26.8,21.8,29.92,NE,38,1.2,4.6,81,0.00,CLR,,0.00,WeatherDisplay:10.37,2013-03-05 13:59:00,
2013-03-05 08:00:00,26.8,21.8,29.92,NE,47,4.9,7.1,81,0.00,CLR,,0.00,WeatherDisplay:10.37,2013-03-05 14:00:00,
2013-03-05 08:02:00,26.8,21.8,29.92,NE,48,2.7,4.6,81,0.00,CLR,,0.00,WeatherDisplay:10.37,2013-03-05 14:02:00,
2013-03-05 08:04:00,26.8,22.0,29.92,ENE,71,2.9,4.0,82,0.00,CLR,,0.00,WeatherDisplay:10.37,2013-03-05 14:04:00,
2013-03-05 08:05:00,26.8,22.0,29.92,NE,47,6.0,8.1,82,0.00,CLR,,0.00,WeatherDisplay:10.37,2013-03-05 14:05:00,
2013-03-05 08:08:00,26.9,22.1,29.92,ENE,76,3.8,6.9,82,0.00,CLR,,0.00,WeatherDisplay:10.37,2013-03-05 14:08:00,
2013-03-05 08:09:00,26.9,22.1,29.92,NE,55,2.6,4.6,82,0.00,CLR,,0.00,WeatherDisplay:10.37,2013-03-05 14:09:00,
2013-03-05 08:10:00,26.9,22.1,29.92,NE,52,2.9,4.6,82,0.00,CLR,,0.00,WeatherDisplay:10.37,2013-03-05 14:10:00,
2013-03-05 08:13:00,27.0,22.2,29.92,ENE,76,4.6,6.9,82,0.00,CLR,,0.00,WeatherDisplay:10.37,2013-03-05 14:13:00,
2013-03-05 08:14:00,26.9,22.1,29.92,NNE,27,2.2,4.6,82,0.00,CLR,,0.00,WeatherDisplay:10.37,2013-03-05 14:14:00,
2013-03-05 08:15:00,26.9,22.1,29.92,NE,40,2.7,8.1,82,0.00,CLR,,0.00,WeatherDisplay:10.37,2013-03-05 14:15:00,
2013-03-05 08:18:00,26.9,22.1,29.92,NNE,18,2.9,4.6,82,0.00,CLR,,0.00,WeatherDisplay:10.37,2013-03-05 14:18:00,
2013-03-05 08:19:00,26.8,22.0,29.92,NE,48,1.9,2.7,82,0.00,CLR,,0.00,WeatherDisplay:10.37,2013-03-05 14:19:00,
2013-03-05 08:21:00,26.9,22.1,29.92,North,360,3.2,4.6,82,0.00,CLR,,0.00,WeatherDisplay:10.37,2013-03-05 14:21:00,
2013-03-05 08:23:00,26.9,22.1,29.92,NNE,32,4.0,6.9,82,0.00,CLR,,0.00,WeatherDisplay:10.37,2013-03-05 14:23:00,
2013-03-05 08:24:00,26.8,22.0,29.92,North,360,5.4,8.5,82,0.00,CLR,,0.00,WeatherDisplay:10.37,2013-03-05 14:24:00,
2013-03-05 08:26:00,26.8,22.0,29.92,NE,44,4.0,5.8,82,0.00,CLR,,0.00,WeatherDisplay:10.37,2013-03-05 14:26:00,
2013-03-05 08:28:00,26.9,22.4,29.92,NE,54,2.7,3.5,83,0.00,CLR,,0.00,WeatherDisplay:10.37,2013-03-05 14:28:00,
2013-03-05 08:29:00,26.9,22.4,29.92,ENE,72,2.8,4.3,83,0.00,CLR,,0.00,WeatherDisplay:10.37,2013-03-05 14:29:00,
2013-03-05 08:31:00,26.9,22.4,29.92,NE,40,4.0,5.8,83,0.00,CLR,,0.00,WeatherDisplay:10.37,2013-03-05 14:31:00,
2013-03-05 08:33:00,26.9,22.4,29.92,NE,54,1.9,2.8,83,0.00,CLR,,0.00,WeatherDisplay:10.37,2013-03-05 14:33:00,
2013-03-05 08:34:00,27.0,22.5,29.92,NE,40,3.9,4.7,83,0.00,CLR,,0.00,WeatherDisplay:10.37,2013-03-05 14:34:00,
2013-03-05 08:35:00,27.0,22.5,29.92,NE,48,4.3,5.8,83,0.00,CLR,,0.00,WeatherDisplay:10.37,2013-03-05 14:35:00,
2013-03-05 08:36:00,26.9,22.4,29.92,NNE,27,3.9,5.0,83,0.00,CLR,,0.00,WeatherDisplay:10.37,2013-03-05 14:36:00,
2013-03-05 08:38:00,27.0,22.5,29.92,ENE,61,3.8,5.8,83,0.00,CLR,,0.00,WeatherDisplay:10.37,2013-03-05 14:38:00,
2013-03-05 08:39:00,27.0,22.5,29.92,NNE,30,4.0,4.6,83,0.00,CLR,,0.00,WeatherDisplay:10.37,2013-03-05 14:39:00,
2013-03-05 08:40:00,27.0,22.5,29.92,NE,47,3.9,5.3,83,0.00,CLR,,0.00,WeatherDisplay:10.37,2013-03-05 14:40:00,
2013-03-05 08:41:00,27.0,22.5,29.92,NNE,30,2.9,5.8,83,0.00,CLR,,0.00,WeatherDisplay:10.37,2013-03-05 14:41:00,
2013-03-05 08:43:00,27.1,22.6,29.92,NE,52,3.8,6.9,83,0.00,CLR,,0.00,WeatherDisplay:10.37,2013-03-05 14:43:00,
2013-03-05 08:44:00,27.1,22.6,29.92,NNE,24,4.2,6.9,83,0.00,CLR,,0.00,WeatherDisplay:10.37,2013-03-05 14:44:00,
2013-03-05 08:45:00,27.2,22.7,29.92,NE,47,4.4,5.8,83,0.00,CLR,,0.00,WeatherDisplay:10.37,2013-03-05 14:45:00,
2013-03-05 08:46:00,27.2,22.7,29.92,East,80,4.6,5.8,83,0.00,CLR,,0.00,WeatherDisplay:10.37,2013-03-05 14:46:00,
2013-03-05 08:48:00,27.2,23.0,29.92,NE,47,4.4,6.9,84,0.00,CLR,,0.00,WeatherDisplay:10.37,2013-03-05 14:48:00,
2013-03-05 08:50:00,27.3,23.1,29.92,NE,44,3.4,4.6,84,0.00,CLR,,0.00,WeatherDisplay:10.37,2013-03-05 14:50:00,
2013-03-05 08:51:00,27.3,23.1,29.92,NE,37,3.6,4.6,84,0.00,CLR,,0.00,WeatherDisplay:10.37,2013-03-05 14:51:00,
2013-03-05 08:54:00,27.4,23.2,29.92,NE,41,2.3,3.5,84,0.00,CLR,,0.00,WeatherDisplay:10.37,2013-03-05 14:54:00,
2013-03-05 08:55:00,27.4,23.2,29.92,NE,35,3.0,4.6,84,0.00,CLR,,0.00,WeatherDisplay:10.37,2013-03-05 14:55:00,
2013-03-05 08:56:00,27.5,23.3,29.92,NNE,31,3.5,4.6,84,0.00,CLR,,0.00,WeatherDisplay:10.37,2013-03-05 14:56:00,
2013-03-05 08:59:00,27.6,23.4,29.91,NE,44,3.9,5.8,84,0.00,CLR,,0.00,WeatherDisplay:10.37,2013-03-05 14:59:00,
2013-03-05 09:00:00,27.7,23.5,29.91,NE,37,4.6,6.9,84,0.00,CLR,,0.00,WeatherDisplay:10.37,2013-03-05 15:00:00,
2013-03-05 09:01:00,27.6,23.4,29.91,NNE,30,3.9,6.9,84,0.00,CLR,,0.00,WeatherDisplay:10.37,2013-03-05 15:01:00,
2013-03-05 09:04:00,27.8,23.3,29.91,NE,35,5.4,6.9,83,0.00,CLR,,0.00,WeatherDisplay:10.37,2013-03-05 15:04:00,
2013-03-05 09:05:00,27.8,23.6,29.91,ENE,64,4.0,5.8,84,0.00,CLR,,0.00,WeatherDisplay:10.37,2013-03-05 15:05:00,
2013-03-05 09:06:00,27.8,23.6,29.91,NE,42,3.7,5.8,84,0.00,CLR,,0.00,WeatherDisplay:10.37,2013-03-05 15:06:00,
2013-03-05 09:09:00,27.9,23.7,29.91,NNE,18,3.3,4.6,84,0.00,CLR,,0.00,WeatherDisplay:10.37,2013-03-05 15:09:00,
2013-03-05 09:11:00,28.0,23.5,29.91,NE,41,3.6,4.6,83,0.00,CLR,,0.00,WeatherDisplay:10.37,2013-03-05 15:11:00,
2013-03-05 09:14:00,28.1,23.6,29.91,NNE,31,2.6,4.6,83,0.00,CLR,,0.00,WeatherDisplay:10.37,2013-03-05 15:14:00,
2013-03-05 09:16:00,28.1,23.6,29.91,NNE,31,4.0,5.8,83,0.00,CLR,,0.00,WeatherDisplay:10.37,2013-03-05 15:16:00,
2013-03-05 09:19:00,28.2,23.7,29.91,NNE,30,5.1,8.1,83,0.00,CLR,,0.00,WeatherDisplay:10.37,2013-03-05 15:19:00,
2013-03-05 09:21:00,28.3,23.8,29.91,ENE,75,4.4,7.1,83,0.00,CLR,,0.00,WeatherDisplay:10.37,2013-03-05 15:21:00,
2013-03-05 09:24:00,28.3,23.8,29.91,NNE,17,3.9,6.9,83,0.00,CLR,,0.00,WeatherDisplay:10.37,2013-03-05 15:24:00,
2013-03-05 09:26:00,28.4,23.9,29.91,NE,49,5.4,8.1,83,0.00,CLR,,0.00,WeatherDisplay:10.37,2013-03-05 15:26:00,
2013-03-05 09:27:00,28.3,23.8,29.91,NE,40,4.6,8.1,83,0.00,CLR,,0.00,WeatherDisplay:10.37,2013-03-05 15:27:00,
2013-03-05 09:29:00,28.4,23.9,29.91,North,8,5.7,9.2,83,0.00,CLR,,0.00,WeatherDisplay:10.37,2013-03-05 15:29:00,
2013-03-05 09:31:00,28.4,23.9,29.91,NE,51,3.5,5.2,83,0.00,CLR,,0.00,WeatherDisplay:10.37,2013-03-05 15:31:00,
2013-03-05 09:32:00,28.5,24.0,29.91,ENE,75,4.5,5.8,83,0.00,CLR,,0.00,WeatherDisplay:10.37,2013-03-05 15:32:00,
2013-03-05 09:35:00,28.5,24.0,29.91,North,11,4.8,8.5,83,0.00,CLR,,0.00,WeatherDisplay:10.37,2013-03-05 15:35:00,
2013-03-05 09:36:00,28.6,24.1,29.91,NE,55,5.1,8.1,83,0.00,CLR,,0.00,WeatherDisplay:10.37,2013-03-05 15:36:00,
2013-03-05 09:37:00,28.6,24.1,29.91,North,8,5.5,8.1,83,0.00,CLR,,0.00,WeatherDisplay:10.37,2013-03-05 15:37:00,
2013-03-05 09:40:00,28.6,24.1,29.91,NE,56,4.6,8.1,83,0.00,CLR,,0.00,WeatherDisplay:10.37,2013-03-05 15:40:00,
2013-03-05 09:42:00,28.8,24.3,29.91,NE,49,4.9,6.9,83,0.00,CLR,,0.00,WeatherDisplay:10.37,2013-03-05 15:42:00,
2013-03-05 09:45:00,28.8,24.3,29.91,East,96,6.8,12.7,83,0.00,CLR,,0.00,WeatherDisplay:10.37,2013-03-05 15:45:00,
2013-03-05 09:47:00,28.8,24.3,29.91,NE,38,5.1,9.2,83,0.00,CLR,,0.00,WeatherDisplay:10.37,2013-03-05 15:47:00,
2013-03-05 09:50:00,28.9,24.4,29.91,NE,48,6.8,9.2,83,0.00,CLR,,0.00,WeatherDisplay:10.37,2013-03-05 15:50:00,
2013-03-05 09:52:00,28.9,24.4,29.90,NE,41,9.1,11.7,83,0.00,CLR,,0.00,WeatherDisplay:10.37,2013-03-05 15:52:00,
2013-03-05 09:55:00,29.0,24.5,29.90,NE,35,5.9,10.4,83,0.00,CLR,,0.00,WeatherDisplay:10.37,2013-03-05 15:55:00,
2013-03-05 09:57:00,29.0,24.5,29.91,NE,41,6.9,12.7,83,0.00,CLR,,0.00,WeatherDisplay:10.37,2013-03-05 15:57:00,
2013-03-05 10:00:00,29.1,24.6,29.90,NNE,32,5.0,9.7,83,0.00,CLR,,0.00,WeatherDisplay:10.37,2013-03-05 16:00:00,
2013-03-05 10:02:00,29.1,24.6,29.90,NE,38,6.8,10.4,83,0.00,CLR,,0.00,WeatherDisplay:10.37,2013-03-05 16:02:00,
2013-03-05 10:05:00,29.1,24.6,29.90,NE,48,5.9,12.7,83,0.00,CLR,,0.00,WeatherDisplay:10.37,2013-03-05 16:05:00,
2013-03-05 10:07:00,29.1,24.6,29.90,ESE,119,6.2,11.5,83,0.00,CLR,,0.00,WeatherDisplay:10.37,2013-03-05 16:07:00,
2013-03-05 10:08:00,29.1,24.6,29.90,ENE,62,4.7,9.2,83,0.00,CLR,,0.00,WeatherDisplay:10.37,2013-03-05 16:08:00,
2013-03-05 10:11:00,29.1,24.6,29.90,ESE,102,6.3,8.1,83,0.00,CLR,,0.00,WeatherDisplay:10.37,2013-03-05 16:11:00,
2013-03-05 10:12:00,29.1,24.6,29.90,East,89,7.6,11.5,83,0.00,CLR,,0.00,WeatherDisplay:10.37,2013-03-05 16:12:00,
2013-03-05 10:13:00,29.1,24.6,29.90,NNE,27,6.5,11.5,83,0.00,CLR,,0.00,WeatherDisplay:10.37,2013-03-05 16:13:00,
2013-03-05 10:16:00,29.2,25.0,29.90,NNE,17,4.0,6.9,84,0.00,CLR,,0.00,WeatherDisplay:10.37,2013-03-05 16:16:00,
2013-03-05 10:17:00,29.2,25.0,29.90,ENE,71,4.6,5.8,84,0.00,CLR,,0.00,WeatherDisplay:10.37,2013-03-05 16:17:00,
2013-03-05 10:18:00,29.3,25.1,29.90,East,99,4.5,8.1,84,0.00,CLR,,0.00,WeatherDisplay:10.37,2013-03-05 16:18:00,
2013-03-05 10:21:00,29.3,25.1,29.90,ENE,58,7.7,10.4,84,0.00,CLR,,0.00,WeatherDisplay:10.37,2013-03-05 16:21:00,
2013-03-05 10:22:00,29.4,25.2,29.90,NE,51,8.1,10.4,84,0.00,CLR,,0.00,WeatherDisplay:10.37,2013-03-05 16:22:00,
2013-03-05 10:23:00,29.3,25.1,29.90,NE,48,7.8,11.5,84,0.00,CLR,,0.00,WeatherDisplay:10.37,2013-03-05 16:23:00,
2013-03-05 10:26:00,29.3,25.1,29.90,NE,41,7.0,10.4,84,0.00,CLR,,0.00,WeatherDisplay:10.37,2013-03-05 16:26:00,
2013-03-05 10:27:00,29.3,25.1,29.90,NNE,25,6.1,9.4,84,0.00,CLR,,0.00,WeatherDisplay:10.37,2013-03-05 16:27:00,
2013-03-05 10:28:00,29.3,25.1,29.90,NE,49,5.9,9.2,84,0.00,CLR,,0.00,WeatherDisplay:10.37,2013-03-05 16:28:00,
2013-03-05 10:31:00,29.3,25.1,29.90,ENE,62,7.4,11.5,84,0.00,CLR,,0.00,WeatherDisplay:10.37,2013-03-05 16:31:00,
2013-03-05 10:33:00,29.2,25.0,29.90,ENE,59,7.1,9.2,84,0.00,CLR,,0.00,WeatherDisplay:10.37,2013-03-05 16:33:00,
2013-03-05 10:36:00,29.3,25.1,29.90,East,83,6.0,6.9,84,0.00,CLR,,0.00,WeatherDisplay:10.37,2013-03-05 16:36:00,
2013-03-05 10:38:00,29.3,25.1,29.90,East,90,6.3,10.4,84,0.00,CLR,,0.00,WeatherDisplay:10.37,2013-03-05 16:38:00,
2013-03-05 10:39:00,29.2,25.0,29.90,NE,38,6.1,13.2,84,0.00,CLR,,0.00,WeatherDisplay:10.37,2013-03-05 16:39:00,
2013-03-05 10:41:00,29.2,25.0,29.90,NE,44,4.7,9.2,84,0.00,CLR,,0.00,WeatherDisplay:10.37,2013-03-05 16:41:00,
2013-03-05 10:43:00,29.3,24.8,29.90,ENE,68,7.2,9.2,83,0.00,CLR,,0.00,WeatherDisplay:10.37,2013-03-05 16:43:00,
2013-03-05 10:44:00,29.2,24.7,29.90,ENE,72,7.4,13.8,83,0.00,CLR,,0.00,WeatherDisplay:10.37,2013-03-05 16:44:00,
2013-03-05 10:47:00,29.2,24.7,29.89,NE,34,6.4,11.2,83,0.00,CLR,,0.00,WeatherDisplay:10.37,2013-03-05 16:47:00,
2013-03-05 10:48:00,29.2,24.7,29.89,ENE,68,6.6,11.5,83,0.00,CLR,,0.00,WeatherDisplay:10.37,2013-03-05 16:48:00,
2013-03-05 10:49:00,29.2,24.7,29.90,NE,37,6.1,9.2,83,0.00,CLR,,0.00,WeatherDisplay:10.37,2013-03-05 16:49:00,
2013-03-05 10:52:00,29.0,24.5,29.89,ENE,69,6.1,10.4,83,0.00,CLR,,0.00,WeatherDisplay:10.37,2013-03-05 16:52:00,
2013-03-05 10:53:00,29.1,24.6,29.89,ENE,59,6.4,9.2,83,0.00,CLR,,0.00,WeatherDisplay:10.37,2013-03-05 16:53:00,
2013-03-05 10:54:00,29.0,24.5,29.89,ENE,64,8.2,15.0,83,0.00,CLR,,0.00,WeatherDisplay:10.37,2013-03-05 16:54:00,
2013-03-05 10:57:00,28.8,24.6,29.89,NE,37,7.6,11.5,84,0.00,CLR,,0.00,WeatherDisplay:10.37,2013-03-05 16:57:00,
2013-03-05 10:58:00,28.8,24.6,29.89,NE,38,7.1,11.5,84,0.00,CLR,,0.00,WeatherDisplay:10.37,2013-03-05 16:58:00,
2013-03-05 10:59:00,28.7,24.5,29.89,NE,41,8.5,12.7,84,0.00,CLR,,0.00,WeatherDisplay:10.37,2013-03-05 16:59:00,
2013-03-05 11:03:00,28.6,24.4,29.89,NE,34,4.3,8.1,84,0.00,CLR,,0.00,WeatherDisplay:10.37,2013-03-05 17:03:00,
2013-03-05 11:04:00,28.6,24.4,29.89,NNE,32,4.9,6.9,84,0.00,CLR,,0.00,WeatherDisplay:10.37,2013-03-05 17:04:00,
2013-03-05 11:05:00,28.6,24.7,29.89,NE,40,6.8,11.5,85,0.00,CLR,,0.00,WeatherDisplay:10.37,2013-03-05 17:05:00,
2013-03-05 11:08:00,28.5,24.6,29.89,NE,44,6.9,10.4,85,0.00,CLR,,0.00,WeatherDisplay:10.37,2013-03-05 17:08:00,
2013-03-05 11:09:00,28.6,24.7,29.89,NNE,30,8.4,15.0,85,0.00,CLR,,0.00,WeatherDisplay:10.37,2013-03-05 17:09:00,
2013-03-05 11:10:00,28.6,24.7,29.89,NE,49,6.5,15.0,85,0.00,CLR,,0.00,WeatherDisplay:10.37,2013-03-05 17:10:00,
2013-03-05 11:13:00,28.7,24.8,29.89,ENE,68,6.4,12.7,85,0.00,CLR,,0.00,WeatherDisplay:10.37,2013-03-05 17:13:00,
2013-03-05 11:14:00,28.7,24.8,29.89,NE,40,6.5,9.2,85,0.00,CLR,,0.00,WeatherDisplay:10.37,2013-03-05 17:14:00,
2013-03-05 11:15:00,28.7,24.8,29.88,ENE,68,6.6,10.4,85,0.00,CLR,,0.00,WeatherDisplay:10.37,2013-03-05 17:15:00,
2013-03-05 11:18:00,28.8,24.9,29.88,NNE,14,5.8,12.7,85,0.00,CLR,,0.00,WeatherDisplay:10.37,2013-03-05 17:18:00,
2013-03-05 11:19:00,28.8,24.9,29.88,ENE,75,7.3,12.7,85,0.00,CLR,,0.00,WeatherDisplay:10.37,2013-03-05 17:19:00,
2013-03-05 11:20:00,28.8,24.9,29.88,East,83,7.9,12.7,85,0.00,CLR,,0.00,WeatherDisplay:10.37,2013-03-05 17:20:00,
2013-03-05 11:24:00,28.7,24.8,29.88,NNE,32,8.5,12.7,85,0.00,CLR,,0.00,WeatherDisplay:10.37,2013-03-05 17:24:00,
2013-03-05 11:25:00,28.7,24.8,29.88,NE,37,7.7,12.7,85,0.00,CLR,,0.00,WeatherDisplay:10.37,2013-03-05 17:25:00,
2013-03-05 11:29:00,28.8,24.9,29.88,North,1,4.7,7.1,85,0.01,RA,,0.01,WeatherDisplay:10.37,2013-03-05 17:29:00,
2013-03-05 11:30:00,28.8,24.9,29.88,ENE,71,7.1,10.4,85,0.01,RA,,0.01,WeatherDisplay:10.37,2013-03-05 17:30:00,
2013-03-05 11:31:00,28.9,25.0,29.88,NNE,31,7.3,11.5,85,0.01,RA,,0.01,WeatherDisplay:10.37,2013-03-05 17:31:00,
2013-03-05 11:34:00,29.0,25.1,29.88,NE,49,7.0,9.2,85,0.01,RA,,0.01,WeatherDisplay:10.37,2013-03-05 17:34:00,
2013-03-05 11:35:00,28.9,25.0,29.88,NE,35,6.9,10.4,85,0.01,RA,,0.01,WeatherDisplay:10.37,2013-03-05 17:35:00,
2013-03-05 11:36:00,28.9,25.0,29.88,East,96,5.4,9.2,85,0.01,RA,,0.01,WeatherDisplay:10.37,2013-03-05 17:36:00,
2013-03-05 11:39:00,29.0,25.1,29.88,ENE,76,7.2,11.4,85,0.01,,,0.01,WeatherDisplay:10.37,2013-03-05 17:39:00,
2013-03-05 11:40:00,29.0,25.1,29.88,NE,54,8.5,13.8,85,0.01,,,0.01,WeatherDisplay:10.37,2013-03-05 17:40:00,
2013-03-05 11:41:00,29.0,25.1,29.87,NNE,14,6.9,13.8,85,0.01,CLR,,0.01,WeatherDisplay:10.37,2013-03-05 17:41:00,
2013-03-05 11:45:00,29.0,25.1,29.87,NE,45,8.0,17.3,85,0.02,RA,,0.02,WeatherDisplay:10.37,2013-03-05 17:45:00,
2013-03-05 11:46:00,29.0,25.1,29.87,East,100,7.6,9.2,85,0.02,RA,,0.02,WeatherDisplay:10.37,2013-03-05 17:46:00,
2013-03-05 11:50:00,29.0,25.1,29.87,NE,37,7.2,9.2,85,0.02,RA,,0.02,WeatherDisplay:10.37,2013-03-05 17:50:00,
2013-03-05 11:52:00,28.9,25.2,29.87,NE,44,6.4,10.4,86,0.02,RA,,0.02,WeatherDisplay:10.37,2013-03-05 17:52:00,
2013-03-05 11:55:00,28.8,25.1,29.86,ENE,73,8.3,13.8,86,0.02,CLR,,0.02,WeatherDisplay:10.37,2013-03-05 17:55:00,
2013-03-05 11:56:00,28.9,25.2,29.86,NNE,23,8.3,13.8,86,0.02,CLR,,0.02,WeatherDisplay:10.37,2013-03-05 17:56:00,
2013-03-05 11:57:00,28.9,25.2,29.87,North,10,9.6,13.8,86,0.02,CLR,,0.02,WeatherDisplay:10.37,2013-03-05 17:57:00,
2013-03-05 12:00:00,28.9,25.2,29.86,NNE,31,8.7,12.7,86,0.02,CLR,,0.02,WeatherDisplay:10.37,2013-03-05 18:00:00,
2013-03-05 12:01:00,28.9,25.2,29.86,NNE,32,7.2,12.7,86,0.02,CLR,,0.02,WeatherDisplay:10.37,2013-03-05 18:01:00,
2013-03-05 12:02:00,28.9,25.2,29.86,NNE,25,7.8,13.8,86,0.02,CLR,,0.02,WeatherDisplay:10.37,2013-03-05 18:02:00,
2013-03-05 12:05:00,28.9,25.2,29.87,ENE,73,7.3,12.7,86,0.02,CLR,,0.02,WeatherDisplay:10.37,2013-03-05 18:05:00,
2013-03-05 12:06:00,28.9,25.2,29.87,ENE,59,6.6,13.8,86,0.02,CLR,,0.02,WeatherDisplay:10.37,2013-03-05 18:06:00,
2013-03-05 12:07:00,28.9,25.2,29.87,NE,40,6.8,11.5,86,0.02,CLR,,0.03,WeatherDisplay:10.37,2013-03-05 18:07:00,
2013-03-05 12:11:00,28.9,25.2,29.86,ENE,68,8.1,11.5,86,0.03,RA,,0.03,WeatherDisplay:10.37,2013-03-05 18:11:00,
2013-03-05 12:13:00,28.9,25.2,29.86,NE,49,6.5,11.3,86,0.03,RA,,0.03,WeatherDisplay:10.37,2013-03-05 18:13:00,
2013-03-05 12:16:00,28.8,25.1,29.86,NE,41,7.7,13.8,86,0.03,RA,,0.03,WeatherDisplay:10.37,2013-03-05 18:16:00,
2013-03-05 12:18:00,28.8,25.1,29.86,ESE,114,8.8,16.1,86,0.03,RA,,0.03,WeatherDisplay:10.37,2013-03-05 18:18:00,
2013-03-05 12:21:00,28.8,25.1,29.86,NE,48,7.0,12.7,86,0.03,CLR,,0.03,WeatherDisplay:10.37,2013-03-05 18:21:00,
2013-03-05 12:23:00,28.8,25.1,29.86,ENE,75,5.8,9.2,86,0.03,CLR,,0.03,WeatherDisplay:10.37,2013-03-05 18:23:00,
2013-03-05 12:26:00,28.8,25.1,29.86,NE,41,6.0,10.4,86,0.03,CLR,,0.03,WeatherDisplay:10.37,2013-03-05 18:26:00,
2013-03-05 12:28:00,28.8,25.1,29.86,NE,52,8.0,11.5,86,0.03,CLR,,0.03,WeatherDisplay:10.37,2013-03-05 18:28:00,
2013-03-05 12:31:00,28.9,25.2,29.86,ESE,112,4.9,15.0,86,0.03,RA,,0.04,WeatherDisplay:10.37,2013-03-05 18:31:00,
2013-03-05 12:33:00,28.8,25.1,29.86,ESE,121,6.9,10.4,86,0.03,RA,,0.04,WeatherDisplay:10.37,2013-03-05 18:33:00,
2013-03-05 12:36:00,28.9,25.5,29.86,NNE,14,4.2,9.2,87,0.03,RA,,0.04,WeatherDisplay:10.37,2013-03-05 18:36:00,
2013-03-05 12:38:00,28.9,25.2,29.86,ENE,65,6.0,13.8,86,0.03,RA,,0.04,WeatherDisplay:10.37,2013-03-05 18:38:00,
2013-03-05 12:41:00,29.0,25.3,29.86,ENE,58,5.6,8.1,86,0.03,,,0.04,WeatherDisplay:10.37,2013-03-05 18:41:00,
2013-03-05 12:42:00,29.0,25.3,29.86,ENE,75,4.6,8.1,86,0.03,,,0.04,WeatherDisplay:10.37,2013-03-05 18:42:00,
2013-03-05 12:44:00,29.0,25.3,29.86,NE,41,4.9,7.7,86,0.02,CLR,,0.04,WeatherDisplay:10.37,2013-03-05 18:44:00,
2013-03-05 12:46:00,29.1,25.4,29.87,NE,37,6.0,10.3,86,0.03,RA,,0.05,WeatherDisplay:10.37,2013-03-05 18:46:00,
2013-03-05 12:47:00,29.1,25.4,29.87,NE,45,7.1,12.7,86,0.03,RA,,0.05,WeatherDisplay:10.37,2013-03-05 18:47:00,
2013-03-05 12:49:00,29.2,25.5,29.87,East,86,6.2,10.4,86,0.03,RA,,0.05,WeatherDisplay:10.37,2013-03-05 18:49:00,
2013-03-05 12:51:00,29.1,25.4,29.87,NNE,27,4.7,9.2,86,0.03,RA,,0.05,WeatherDisplay:10.37,2013-03-05 18:51:00,
2013-03-05 12:52:00,29.2,25.5,29.87,East,89,6.4,11.0,86,0.03,RA,,0.05,WeatherDisplay:10.37,2013-03-05 18:52:00,
2013-03-05 12:55:00,29.2,25.5,29.87,ENE,73,3.6,5.8,86,0.03,,,0.05,WeatherDisplay:10.37,2013-03-05 18:55:00,
2013-03-05 12:56:00,29.2,25.5,29.87,NNW,339,3.6,5.8,86,0.03,,,0.05,WeatherDisplay:10.37,2013-03-05 18:56:00,
2013-03-05 12:57:00,29.2,25.5,29.87,NNE,21,3.6,6.9,86,0.03,CLR,,0.05,WeatherDisplay:10.37,2013-03-05 18:57:00,
2013-03-05 13:00:00,29.3,25.6,29.87,ESE,107,6.8,9.2,86,0.03,CLR,,0.05,WeatherDisplay:10.37,2013-03-05 19:00:00,
2013-03-05 13:01:00,29.4,25.4,29.87,ENE,71,4.7,8.1,85,0.03,CLR,,0.05,WeatherDisplay:10.37,2013-03-05 19:01:00,
2013-03-05 13:02:00,29.4,25.4,29.87,NE,47,7.3,11.5,85,0.03,CLR,,0.05,WeatherDisplay:10.37,2013-03-05 19:02:00,
2013-03-05 13:03:00,29.4,25.4,29.87,NNE,32,7.2,11.5,85,0.03,CLR,,0.05,WeatherDisplay:10.37,2013-03-05 19:03:00,
2013-03-05 13:05:00,29.3,25.4,29.87,NE,49,7.9,11.5,85,0.03,CLR,,0.05,WeatherDisplay:10.37,2013-03-05 19:05:00,
2013-03-05 13:06:00,29.4,25.2,29.87,NE,55,7.1,10.4,84,0.04,RA,,0.06,WeatherDisplay:10.37,2013-03-05 19:06:00,
2013-03-05 13:08:00,29.3,25.1,29.87,NE,52,6.8,9.2,84,0.04,RA,,0.06,WeatherDisplay:10.37,2013-03-05 19:08:00,
2013-03-05 13:10:00,29.4,25.2,29.87,NE,51,6.3,10.4,84,0.03,RA,,0.06,WeatherDisplay:10.37,2013-03-05 19:10:00,
2013-03-05 13:11:00,29.3,25.1,29.87,NE,44,7.0,9.2,84,0.03,RA,,0.06,WeatherDisplay:10.37,2013-03-05 19:11:00,
2013-03-05 13:13:00,29.3,24.8,29.87,East,86,7.9,13.8,83,0.03,RA,,0.06,WeatherDisplay:10.37,2013-03-05 19:13:00,
2013-03-05 13:15:00,29.3,24.8,29.87,NE,55,6.0,10.4,83,0.03,RA,,0.06,WeatherDisplay:10.37,2013-03-05 19:15:00,
2013-03-05 13:17:00,29.2,25.0,29.87,NE,37,6.1,8.1,84,0.03,,,0.06,WeatherDisplay:10.37,2013-03-05 19:17:00,
2013-03-05 13:18:00,29.2,24.7,29.87,NE,47,6.4,11.5,83,0.04,RA,,0.07,WeatherDisplay:10.37,2013-03-05 19:18:00,
2013-03-05 13:20:00,29.2,24.7,29.87,NNE,21,4.4,8.8,83,0.04,RA,,0.07,WeatherDisplay:10.37,2013-03-05 19:20:00,
2013-03-05 13:22:00,29.2,24.7,29.87,NE,38,5.6,10.4,83,0.04,RA,,0.07,WeatherDisplay:10.37,2013-03-05 19:22:00,
2013-03-05 13:23:00,29.3,24.8,29.87,NNE,27,5.7,10.1,83,0.04,RA,,0.07,WeatherDisplay:10.37,2013-03-05 19:23:00,
2013-03-05 13:25:00,29.2,24.7,29.88,NE,52,7.8,11.8,83,0.04,RA,,0.07,WeatherDisplay:10.37,2013-03-05 19:25:00,
2013-03-05 13:27:00,29.2,24.7,29.88,NE,49,5.7,9.2,83,0.04,RA,,0.08,WeatherDisplay:10.37,2013-03-05 19:27:00,
2013-03-05 13:28:00,29.1,24.6,29.87,NE,41,7.7,9.7,83,0.05,RA,,0.08,WeatherDisplay:10.37,2013-03-05 19:28:00,
2013-03-05 13:30:00,29.1,24.6,29.87,East,95,6.9,10.4,83,0.05,RA,,0.08,WeatherDisplay:10.37,2013-03-05 19:30:00,
2013-03-05 13:32:00,29.1,24.6,29.87,NE,51,6.9,9.2,83,0.04,RA,,0.08,WeatherDisplay:10.37,2013-03-05 19:32:00,
2013-03-05 13:33:00,29.0,24.5,29.87,ENE,59,6.5,10.4,83,0.04,RA,,0.08,WeatherDisplay:10.37,2013-03-05 19:33:00,
2013-03-05 13:34:00,29.0,24.5,29.87,NNE,21,6.3,10.9,83,0.04,RA,,0.08,WeatherDisplay:10.37,2013-03-05 19:34:00,
2013-03-05 13:36:00,29.0,24.5,29.87,East,80,5.2,10.4,83,0.04,RA,,0.08,WeatherDisplay:10.37,2013-03-05 19:36:00,
2013-03-05 13:37:00,29.0,24.5,29.87,NE,49,6.4,9.2,83,0.04,RA,,0.08,WeatherDisplay:10.37,2013-03-05 19:37:00,
2013-03-05 13:38:00,28.9,24.4,29.87,NNE,17,4.6,6.9,83,0.04,,,0.08,WeatherDisplay:10.37,2013-03-05 19:38:00,
2013-03-05 13:39:00,28.9,24.4,29.87,North,11,4.0,6.9,83,0.04,,,0.08,WeatherDisplay:10.37,2013-03-05 19:39:00,
2013-03-05 13:41:00,29.0,24.5,29.87,NE,47,4.2,8.1,83,0.04,CLR,,0.08,WeatherDisplay:10.37,2013-03-05 19:41:00,
2013-03-05 13:42:00,29.0,24.5,29.87,NNE,30,4.8,8.1,83,0.04,CLR,,0.08,WeatherDisplay:10.37,2013-03-05 19:42:00,
2013-03-05 13:43:00,29.0,24.5,29.87,NNE,17,5.0,8.1,83,0.04,CLR,,0.08,WeatherDisplay:10.37,2013-03-05 19:43:00,
2013-03-05 13:44:00,29.0,24.5,29.88,ENE,71,5.2,8.1,83,0.04,CLR,,0.08,WeatherDisplay:10.37,2013-03-05 19:44:00,
2013-03-05 13:46:00,29.1,24.6,29.88,NE,35,7.1,9.2,83,0.03,CLR,,0.08,WeatherDisplay:10.37,2013-03-05 19:46:00,
2013-03-05 13:47:00,29.2,24.7,29.88,NNE,27,7.6,10.4,83,0.03,CLR,,0.08,WeatherDisplay:10.37,2013-03-05 19:47:00,
2013-03-05 13:49:00,29.2,24.7,29.87,NNE,32,6.4,8.6,83,0.03,CLR,,0.08,WeatherDisplay:10.37,2013-03-05 19:49:00,
2013-03-05 13:50:00,29.1,24.6,29.87,NNE,23,7.2,11.3,83,0.03,CLR,,0.09,WeatherDisplay:10.37,2013-03-05 19:50:00,
2013-03-05 13:51:00,29.1,24.6,29.87,NE,45,6.8,12.7,83,0.04,RA,,0.09,WeatherDisplay:10.37,2013-03-05 19:51:00,
2013-03-05 13:53:00,29.1,24.6,29.87,NNE,16,7.3,9.2,83,0.04,RA,,0.09,WeatherDisplay:10.37,2013-03-05 19:53:00,
2013-03-05 13:54:00,29.1,24.6,29.88,NE,52,5.6,10.4,83,0.04,RA,,0.09,WeatherDisplay:10.37,2013-03-05 19:54:00,
2013-03-05 13:55:00,29.1,24.6,29.88,ENE,73,5.9,9.2,83,0.04,RA,,0.09,WeatherDisplay:10.37,2013-03-05 19:55:00,
2013-03-05 13:56:00,29.3,24.8,29.87,ENE,62,2.2,4.7,83,0.04,RA,,0.09,WeatherDisplay:10.37,2013-03-05 19:56:00,
2013-03-05 13:58:00,29.3,24.8,29.87,NNE,27,7.2,11.5,83,0.04,RA,,0.09,WeatherDisplay:10.37,2013-03-05 19:58:00,
2013-03-05 13:59:00,29.3,24.8,29.88,NE,54,5.2,8.1,83,0.04,RA,,0.09,WeatherDisplay:10.37,2013-03-05 19:59:00,
2013-03-05 14:00:00,29.4,24.9,29.88,NNE,30,5.3,9.1,83,0.04,RA,,0.09,WeatherDisplay:10.37,2013-03-05 20:00:00,
2013-03-05 14:01:00,29.5,25.0,29.87,NE,47,4.1,12.7,83,0.04,,,0.09,WeatherDisplay:10.37,2013-03-05 20:01:00,
2013-03-05 14:03:00,29.4,24.9,29.87,NNE,32,6.0,9.2,83,0.04,CLR,,0.09,WeatherDisplay:10.37,2013-03-05 20:03:00,
2013-03-05 14:04:00,29.4,24.9,29.87,NNE,28,4.7,11.1,83,0.04,CLR,,0.09,WeatherDisplay:10.37,2013-03-05 20:04:00,
2013-03-05 14:05:00,29.4,24.9,29.87,NNE,23,7.0,11.5,83,0.04,CLR,,0.10,WeatherDisplay:10.37,2013-03-05 20:05:00,
2013-03-05 14:06:00,29.4,24.9,29.88,NNE,24,5.8,8.1,83,0.04,RA,,0.10,WeatherDisplay:10.37,2013-03-05 20:06:00,
2013-03-05 14:08:00,29.5,25.0,29.88,East,83,3.9,6.9,83,0.04,RA,,0.10,WeatherDisplay:10.37,2013-03-05 20:08:00,
2013-03-05 14:09:00,29.4,24.9,29.88,NNE,28,4.7,6.9,83,0.04,RA,,0.10,WeatherDisplay:10.37,2013-03-05 20:09:00,
2013-03-05 14:10:00,29.5,25.0,29.88,NE,45,5.9,8.1,83,0.04,RA,,0.10,WeatherDisplay:10.37,2013-03-05 20:10:00,
2013-03-05 14:12:00,29.5,25.0,29.88,NNE,14,6.7,9.2,83,0.04,RA,,0.10,WeatherDisplay:10.37,2013-03-05 20:12:00,
2013-03-05 14:14:00,29.5,25.0,29.88,North,349,4.2,8.1,83,0.04,RA,,0.10,WeatherDisplay:10.37,2013-03-05 20:14:00,
2013-03-05 14:15:00,29.4,24.9,29.88,NE,49,4.2,8.1,83,0.04,RA,,0.10,WeatherDisplay:10.37,2013-03-05 20:15:00,
2013-03-05 14:17:00,29.4,24.9,29.88,North,8,4.8,8.1,83,0.04,,,0.10,WeatherDisplay:10.37,2013-03-05 20:17:00,
2013-03-05 14:19:00,29.5,25.0,29.88,North,1,4.1,10.1,83,0.03,CLR,,0.11,WeatherDisplay:10.37,2013-03-05 20:19:00,
2013-03-05 14:20:00,29.4,24.9,29.88,North,7,6.7,10.4,83,0.04,RA,,0.11,WeatherDisplay:10.37,2013-03-05 20:20:00,
2013-03-05 14:22:00,29.4,24.6,29.88,ENE,62,4.4,6.9,82,0.04,RA,,0.11,WeatherDisplay:10.37,2013-03-05 20:22:00,
2013-03-05 14:25:00,29.4,24.9,29.88,NNE,18,6.4,6.9,83,0.04,RA,,0.11,WeatherDisplay:10.37,2013-03-05 20:25:00,
2013-03-05 14:26:00,29.4,24.6,29.88,NNE,27,5.7,9.2,82,0.04,RA,,0.11,WeatherDisplay:10.37,2013-03-05 20:26:00,
2013-03-05 14:27:00,29.5,24.7,29.88,NE,37,4.5,6.9,82,0.04,RA,,0.11,WeatherDisplay:10.37,2013-03-05 20:27:00,
2013-03-05 14:30:00,29.5,24.7,29.88,NNE,14,7.6,7.6,82,0.03,,,0.11,WeatherDisplay:10.37,2013-03-05 20:30:00,
2013-03-05 14:31:00,29.5,24.7,29.88,NE,55,8.0,11.5,82,0.03,,,0.11,WeatherDisplay:10.37,2013-03-05 20:31:00,
2013-03-05 14:32:00,29.4,24.6,29.88,NNE,13,5.9,10.4,82,0.03,CLR,,0.11,WeatherDisplay:10.37,2013-03-05 20:32:00,
2013-03-05 14:35:00,29.4,24.6,29.88,NNE,23,3.5,8.1,82,0.03,CLR,,0.11,WeatherDisplay:10.37,2013-03-05 20:35:00,
2013-03-05 14:36:00,29.4,24.6,29.88,ENE,69,2.9,5.8,82,0.03,CLR,,0.11,WeatherDisplay:10.37,2013-03-05 20:36:00,
2013-03-05 14:37:00,29.4,24.6,29.88,ENE,59,3.6,4.6,82,0.03,CLR,,0.11,WeatherDisplay:10.37,2013-03-05 20:37:00,
2013-03-05 14:41:00,29.4,24.6,29.89,NE,37,6.1,10.9,82,0.03,CLR,,0.11,WeatherDisplay:10.37,2013-03-05 20:41:00,
2013-03-05 14:42:00,29.3,24.5,29.89,North,353,1.9,10.4,82,0.03,CLR,,0.11,WeatherDisplay:10.37,2013-03-05 20:42:00,
2013-03-05 14:46:00,29.4,24.6,29.88,NE,54,8.3,11.5,82,0.03,CLR,,0.11,WeatherDisplay:10.37,2013-03-05 20:46:00,
2013-03-05 14:47:00,29.3,24.5,29.89,North,3,6.1,9.2,82,0.03,CLR,,0.11,WeatherDisplay:10.37,2013-03-05 20:47:00,
2013-03-05 14:51:00,29.2,24.1,29.89,NE,35,5.4,11.8,81,0.02,CLR,,0.11,WeatherDisplay:10.37,2013-03-05 20:51:00,
2013-03-05 14:52:00,29.2,24.1,29.89,NNE,24,7.3,12.7,81,0.02,CLR,,0.11,WeatherDisplay:10.37,2013-03-05 20:52:00,
2013-03-05 14:53:00,29.2,24.1,29.89,North,8,10.4,16.1,81,0.02,CLR,,0.11,WeatherDisplay:10.37,2013-03-05 20:53:00,
2013-03-05 14:56:00,29.1,24.0,29.89,NE,51,7.1,12.7,81,0.02,CLR,,0.11,WeatherDisplay:10.37,2013-03-05 20:56:00,
2013-03-05 14:57:00,29.1,24.0,29.89,NE,45,9.4,13.8,81,0.02,CLR,,0.11,WeatherDisplay:10.37,2013-03-05 20:57:00,
2013-03-05 14:58:00,29.0,23.9,29.89,NNE,27,6.9,12.7,81,0.02,CLR,,0.11,WeatherDisplay:10.37,2013-03-05 20:58:00,
2013-03-05 15:01:00,29.0,24.2,29.89,NNE,24,6.5,10.4,82,0.02,CLR,,0.11,WeatherDisplay:10.37,2013-03-05 21:01:00,
2013-03-05 15:02:00,29.0,24.2,29.89,NE,55,6.0,10.4,82,0.02,CLR,,0.11,WeatherDisplay:10.37,2013-03-05 21:02:00,
2013-03-05 15:03:00,29.0,24.2,29.89,NE,35,6.1,11.5,82,0.02,CLR,,0.11,WeatherDisplay:10.37,2013-03-05 21:03:00,
2013-03-05 15:07:00,28.9,23.8,29.90,North,357,6.1,10.4,81,0.01,CLR,,0.11,WeatherDisplay:10.37,2013-03-05 21:07:00,
2013-03-05 15:08:00,29.0,23.9,29.90,North,360,6.3,8.1,81,0.01,CLR,,0.11,WeatherDisplay:10.37,2013-03-05 21:08:00,
2013-03-05 15:12:00,28.7,23.6,29.90,NNE,24,6.9,9.2,81,0.01,CLR,,0.11,WeatherDisplay:10.37,2013-03-05 21:12:00,
2013-03-05 15:13:00,28.7,23.6,29.90,NE,47,7.6,11.9,81,0.01,CLR,,0.11,WeatherDisplay:10.37,2013-03-05 21:13:00,
2013-03-05 15:17:00,28.4,23.6,29.90,ENE,69,5.5,6.9,82,0.01,CLR,,0.11,WeatherDisplay:10.37,2013-03-05 21:17:00,
2013-03-05 15:18:00,28.4,23.6,29.90,NNE,21,5.6,8.1,82,0.01,CLR,,0.11,WeatherDisplay:10.37,2013-03-05 21:18:00,
2013-03-05 15:22:00,28.3,23.5,29.90,NE,42,4.0,6.9,82,0.00,CLR,,0.11,WeatherDisplay:10.37,2013-03-05 21:22:00,
2013-03-05 15:23:00,28.3,23.5,29.90,NE,54,5.5,6.9,82,0.00,CLR,,0.11,WeatherDisplay:10.37,2013-03-05 21:23:00,
2013-03-05 15:27:00,28.2,23.4,29.90,NNE,16,6.7,9.2,82,0.00,CLR,,0.11,WeatherDisplay:10.37,2013-03-05 21:27:00,
2013-03-05 15:28:00,28.3,23.5,29.90,NE,44,7.2,9.2,82,0.00,CLR,,0.12,WeatherDisplay:10.37,2013-03-05 21:28:00,
2013-03-05 15:32:00,28.2,23.4,29.90,North,7,5.6,6.9,82,0.01,RA,,0.12,WeatherDisplay:10.37,2013-03-05 21:32:00,
2013-03-05 15:33:00,28.2,23.4,29.90,NNW,342,6.6,8.6,82,0.01,RA,,0.12,WeatherDisplay:10.37,2013-03-05 21:33:00,
2013-03-05 15:37:00,28.2,23.4,29.91,NE,38,6.3,9.2,82,0.01,RA,,0.12,WeatherDisplay:10.37,2013-03-05 21:37:00,
2013-03-05 15:38:00,28.2,23.4,29.91,NNE,31,6.2,9.2,82,0.01,RA,,0.12,WeatherDisplay:10.37,2013-03-05 21:38:00,
2013-03-05 15:42:00,28.2,23.1,29.91,NE,47,6.2,9.2,81,0.01,CLR,,0.12,WeatherDisplay:10.37,2013-03-05 21:42:00,
2013-03-05 15:43:00,28.3,23.2,29.91,NE,35,6.9,9.2,81,0.01,CLR,,0.12,WeatherDisplay:10.37,2013-03-05 21:43:00,
2013-03-05 15:48:00,28.2,23.1,29.91,North,360,6.2,11.5,81,0.02,RA,,0.13,WeatherDisplay:10.37,2013-03-05 21:48:00,
2013-03-05 15:49:00,28.2,23.4,29.91,NE,49,5.4,6.9,82,0.02,RA,,0.13,WeatherDisplay:10.37,2013-03-05 21:49:00,
2013-03-05 15:53:00,28.2,23.4,29.91,North,360,6.4,9.2,82,0.02,RA,,0.13,WeatherDisplay:10.37,2013-03-05 21:53:00,
2013-03-05 15:54:00,28.2,23.4,29.91,NE,34,4.7,9.2,82,0.02,RA,,0.13,WeatherDisplay:10.37,2013-03-05 21:54:00,
2013-03-05 15:58:00,28.1,23.3,29.91,NNE,27,4.4,7.6,82,0.02,CLR,,0.13,WeatherDisplay:10.37,2013-03-05 21:58:00,
2013-03-05 15:59:00,28.1,23.3,29.91,NNE,20,7.6,9.2,82,0.02,CLR,,0.13,WeatherDisplay:10.37,2013-03-05 21:59:00,
2013-03-05 16:03:00,28.0,23.5,29.92,North,11,6.6,10.4,83,0.02,CLR,,0.13,WeatherDisplay:10.37,2013-03-05 22:03:00,
2013-03-05 16:04:00,27.9,23.4,29.92,NNE,28,7.7,11.5,83,0.02,CLR,,0.13,WeatherDisplay:10.37,2013-03-05 22:04:00,
2013-03-05 16:08:00,27.7,23.2,29.92,North,11,6.2,8.1,83,0.02,CLR,,0.13,WeatherDisplay:10.37,2013-03-05 22:08:00,
2013-03-05 16:09:00,27.8,23.3,29.92,NNE,27,6.9,10.4,83,0.02,CLR,,0.13,WeatherDisplay:10.37,2013-03-05 22:09:00,
2013-03-05 16:13:00,27.6,23.4,29.92,NNE,20,5.6,9.9,84,0.02,CLR,,0.13,WeatherDisplay:10.37,2013-03-05 22:13:00,
2013-03-05 16:14:00,27.5,23.3,29.92,NE,38,6.7,12.7,84,0.02,CLR,,0.13,WeatherDisplay:10.37,2013-03-05 22:14:00,
2013-03-05 16:18:00,27.4,23.2,29.93,NE,40,8.0,11.5,84,0.02,CLR,,0.13,WeatherDisplay:10.37,2013-03-05 22:18:00,
2013-03-05 16:19:00,27.4,23.2,29.93,North,360,6.8,9.2,84,0.02,CLR,,0.13,WeatherDisplay:10.37,2013-03-05 22:19:00,
2013-03-05 16:20:00,27.4,23.2,29.93,NNE,24,8.0,10.4,84,0.02,CLR,,0.13,WeatherDisplay:10.37,2013-03-05 22:20:00,
2013-03-05 16:23:00,27.4,23.5,29.93,NNE,14,6.9,12.7,85,0.02,CLR,,0.13,WeatherDisplay:10.37,2013-03-05 22:23:00,
2013-03-05 16:24:00,27.3,23.4,29.93,North,10,10.1,15.0,85,0.02,CLR,,0.13,WeatherDisplay:10.37,2013-03-05 22:24:00,
2013-03-05 16:25:00,27.3,23.4,29.93,NNE,28,10.1,15.0,85,0.02,CLR,,0.13,WeatherDisplay:10.37,2013-03-05 22:25:00,
2013-03-05 16:28:00,27.2,23.3,29.93,NNE,32,9.1,17.3,85,0.02,CLR,,0.13,WeatherDisplay:10.37,2013-03-05 22:28:00,
2013-03-05 16:29:00,27.1,23.2,29.93,NE,49,9.3,16.1,85,0.01,CLR,,0.13,WeatherDisplay:10.37,2013-03-05 22:29:00,
2013-03-05 16:30:00,27.1,23.2,29.93,NNE,30,10.0,12.7,85,0.01,CLR,,0.13,WeatherDisplay:10.37,2013-03-05 22:30:00,
2013-03-05 16:33:00,27.0,23.4,29.93,NNW,335,7.3,9.2,86,0.01,CLR,,0.13,WeatherDisplay:10.37,2013-03-05 22:33:00,
2013-03-05 16:34:00,27.0,23.4,29.93,NNE,21,7.2,11.5,86,0.01,CLR,,0.13,WeatherDisplay:10.37,2013-03-05 22:34:00,
2013-03-05 16:35:00,26.9,23.3,29.93,NNE,31,7.2,11.5,86,0.01,CLR,,0.13,WeatherDisplay:10.37,2013-03-05 22:35:00,
2013-03-05 16:38:00,26.8,23.2,29.93,NNE,30,7.4,11.5,86,0.01,CLR,,0.13,WeatherDisplay:10.37,2013-03-05 22:38:00,
2013-03-05 16:39:00,26.9,23.3,29.93,North,6,7.2,11.6,86,0.01,CLR,,0.13,WeatherDisplay:10.37,2013-03-05 22:39:00,
2013-03-05 16:40:00,26.8,23.2,29.93,ENE,59,8.7,11.5,86,0.01,CLR,,0.13,WeatherDisplay:10.37,2013-03-05 22:40:00,
2013-03-05 16:43:00,26.7,23.1,29.94,North,349,5.0,9.2,86,0.02,RA,,0.14,WeatherDisplay:10.37,2013-03-05 22:43:00,
2013-03-05 16:44:00,26.7,23.1,29.94,NNE,24,4.2,9.2,86,0.02,RA,,0.14,WeatherDisplay:10.37,2013-03-05 22:44:00,
2013-03-05 16:45:00,26.7,23.1,29.94,North,10,7.4,9.2,86,0.02,RA,,0.14,WeatherDisplay:10.37,2013-03-05 22:45:00,
2013-03-05 16:48:00,26.6,23.3,29.94,NE,40,9.1,10.3,87,0.01,RA,,0.14,WeatherDisplay:10.37,2013-03-05 22:48:00,
2013-03-05 16:49:00,26.5,23.2,29.94,East,80,9.4,12.7,87,0.01,RA,,0.14,WeatherDisplay:10.37,2013-03-05 22:49:00,
2013-03-05 16:50:00,26.6,23.3,29.94,NE,42,8.5,12.7,87,0.01,RA,,0.14,WeatherDisplay:10.37,2013-03-05 22:50:00,
2013-03-05 16:53:00,26.4,23.1,29.94,NE,34,4.1,8.3,87,0.01,,,0.14,WeatherDisplay:10.37,2013-03-05 22:53:00,
2013-03-05 16:55:00,26.4,23.1,29.94,North,11,9.0,11.6,87,0.01,,,0.14,WeatherDisplay:10.37,2013-03-05 22:55:00,
2013-03-05 16:58:00,26.3,23.0,29.94,NNE,14,8.1,11.5,87,0.01,CLR,,0.14,WeatherDisplay:10.37,2013-03-05 22:58:00,
2013-03-05 17:00:00,26.1,22.8,29.94,NE,38,6.5,10.4,87,0.01,CLR,,0.14,WeatherDisplay:10.37,2013-03-05 23:00:00,
2013-03-05 17:01:00,26.2,22.9,29.94,NNE,30,6.2,10.4,87,0.01,CLR,,0.14,WeatherDisplay:10.37,2013-03-05 23:01:00,
2013-03-05 17:04:00,26.1,22.8,29.95,NE,40,7.6,10.4,87,0.01,CLR,,0.14,WeatherDisplay:10.37,2013-03-05 23:04:00,
2013-03-05 17:05:00,26.1,22.8,29.95,NE,48,10.1,13.9,87,0.01,CLR,,0.14,WeatherDisplay:10.37,2013-03-05 23:05:00,
2013-03-05 17:06:00,26.0,22.7,29.95,North,360,9.7,15.0,87,0.01,CLR,,0.14,WeatherDisplay:10.37,2013-03-05 23:06:00,
2013-03-05 17:09:00,25.9,22.6,29.95,North,3,7.2,10.4,87,0.01,CLR,,0.14,WeatherDisplay:10.37,2013-03-05 23:09:00,
2013-03-05 17:10:00,25.9,22.6,29.95,NE,54,7.7,12.7,87,0.01,CLR,,0.14,WeatherDisplay:10.37,2013-03-05 23:10:00,
2013-03-05 17:11:00,25.9,22.6,29.95,North,4,5.8,12.7,87,0.01,CLR,,0.14,WeatherDisplay:10.37,2013-03-05 23:11:00,
2013-03-05 17:14:00,25.8,22.5,29.95,NE,47,6.9,12.7,87,0.01,CLR,,0.14,WeatherDisplay:10.37,2013-03-05 23:14:00,
2013-03-05 17:15:00,25.8,22.7,29.95,North,7,8.9,12.7,88,0.01,CLR,,0.14,WeatherDisplay:10.37,2013-03-05 23:15:00,
2013-03-05 17:16:00,25.7,22.6,29.95,NNE,16,8.9,12.7,88,0.01,CLR,,0.14,WeatherDisplay:10.37,2013-03-05 23:16:00,
2013-03-05 17:19:00,25.8,22.7,29.95,NE,40,4.8,6.9,88,0.01,CLR,,0.14,WeatherDisplay:10.37,2013-03-05 23:19:00,
2013-03-05 17:20:00,25.7,22.6,29.95,North,360,7.3,10.4,88,0.01,CLR,,0.14,WeatherDisplay:10.37,2013-03-05 23:20:00,
2013-03-05 17:21:00,25.7,22.6,29.95,NNE,31,7.6,10.4,88,0.01,CLR,,0.14,WeatherDisplay:10.37,2013-03-05 23:21:00,
2013-03-05 17:24:00,25.7,22.6,29.95,NNE,23,4.7,11.5,88,0.01,CLR,,0.14,WeatherDisplay:10.37,2013-03-05 23:24:00,
2013-03-05 17:26:00,25.5,22.4,29.95,ENE,66,5.9,8.1,88,0.01,CLR,,0.14,WeatherDisplay:10.37,2013-03-05 23:26:00,
2013-03-05 17:29:00,25.6,22.5,29.95,North,10,5.8,11.5,88,0.01,CLR,,0.14,WeatherDisplay:10.37,2013-03-05 23:29:00,
2013-03-05 17:31:00,25.6,22.5,29.96,North,360,5.7,9.2,88,0.01,CLR,,0.14,WeatherDisplay:10.37,2013-03-05 23:31:00,
2013-03-05 17:34:00,25.5,22.4,29.96,NW,323,7.9,9.2,88,0.01,CLR,,0.14,WeatherDisplay:10.37,2013-03-05 23:34:00,
2013-03-05 17:36:00,25.5,22.4,29.96,NNE,28,4.5,8.1,88,0.01,CLR,,0.14,WeatherDisplay:10.37,2013-03-05 23:36:00,
2013-03-05 17:37:00,25.5,22.4,29.96,NW,308,4.9,6.5,88,0.01,CLR,,0.14,WeatherDisplay:10.37,2013-03-05 23:37:00,
2013-03-05 17:40:00,25.5,22.4,29.96,NNE,25,4.3,6.9,88,0.01,CLR,,0.14,WeatherDisplay:10.37,2013-03-05 23:40:00,
2013-03-05 17:41:00,25.5,22.4,29.96,North,360,6.6,8.1,88,0.01,CLR,,0.14,WeatherDisplay:10.37,2013-03-05 23:41:00,
2013-03-05 17:42:00,25.5,22.4,29.96,North,360,6.1,9.2,88,0.01,CLR,,0.14,WeatherDisplay:10.37,2013-03-05 23:42:00,
2013-03-05 17:45:00,25.5,22.4,29.96,North,11,7.3,10.4,88,0.00,CLR,,0.14,WeatherDisplay:10.37,2013-03-05 23:45:00,
2013-03-05 17:46:00,25.5,22.4,29.96,North,360,4.2,9.2,88,0.00,CLR,,0.14,WeatherDisplay:10.37,2013-03-05 23:46:00,
2013-03-05 17:47:00,25.4,22.3,29.96,NNE,23,4.5,8.6,88,0.00,CLR,,0.14,WeatherDisplay:10.37,2013-03-05 23:47:00,
2013-03-05 17:48:00,25.5,22.4,29.97,North,360,6.7,9.2,88,0.00,CLR,,0.14,WeatherDisplay:10.37,2013-03-05 23:48:00,
2013-03-05 17:51:00,25.4,22.3,29.97,NNW,337,7.1,9.2,88,0.00,CLR,,0.14,WeatherDisplay:10.37,2013-03-05 23:51:00,
2013-03-05 17:52:00,25.4,22.3,29.97,NNE,14,6.8,8.1,88,0.00,CLR,,0.14,WeatherDisplay:10.37,2013-03-05 23:52:00,
2013-03-05 17:53:00,25.3,22.2,29.97,North,360,4.0,8.1,88,0.00,CLR,,0.14,WeatherDisplay:10.37,2013-03-05 23:53:00,
2013-03-05 17:56:00,25.3,22.2,29.97,NNE,31,6.5,10.4,88,0.00,CLR,,0.14,WeatherDisplay:10.37,2013-03-05 23:56:00,
2013-03-05 17:57:00,25.3,22.2,29.97,North,6,5.9,9.7,88,0.00,CLR,,0.14,WeatherDisplay:10.37,2013-03-05 23:57:00,
2013-03-05 17:58:00,25.3,22.2,29.98,NNW,335,7.4,10.4,88,0.00,CLR,,0.14,WeatherDisplay:10.37,2013-03-05 23:58:00,
2013-03-05 18:01:00,25.3,22.2,29.98,NNE,21,5.9,9.2,88,0.00,CLR,,0.14,WeatherDisplay:10.37,2013-03-06 00:01:00,
2013-03-05 18:02:00,25.3,22.2,29.98,NE,37,7.5,10.4,88,0.00,CLR,,0.14,WeatherDisplay:10.37,2013-03-06 00:02:00,
2013-03-05 18:03:00,25.3,22.2,29.98,NNE,17,7.9,10.4,88,0.00,CLR,,0.14,WeatherDisplay:10.37,2013-03-06 00:03:00,
2013-03-05 18:06:00,25.1,22.0,29.98,NNE,20,5.0,8.1,88,0.00,CLR,,0.14,WeatherDisplay:10.37,2013-03-06 00:06:00,
2013-03-05 18:07:00,25.2,22.1,29.98,NW,323,4.9,7.3,88,0.00,CLR,,0.14,WeatherDisplay:10.37,2013-03-06 00:07:00,
2013-03-05 18:08:00,25.2,22.1,29.98,NE,49,5.8,9.2,88,0.00,CLR,,0.14,WeatherDisplay:10.37,2013-03-06 00:08:00,
2013-03-05 18:11:00,25.2,22.1,29.98,North,3,5.9,10.4,88,0.00,CLR,,0.14,WeatherDisplay:10.37,2013-03-06 00:11:00,
2013-03-05 18:13:00,25.2,22.1,29.98,NE,45,5.9,6.9,88,0.00,CLR,,0.14,WeatherDisplay:10.37,2013-03-06 00:13:00,
2013-03-05 18:16:00,25.1,22.0,29.99,NE,45,5.8,8.1,88,0.00,CLR,,0.14,WeatherDisplay:10.37,2013-03-06 00:16:00,
2013-03-05 18:18:00,25.1,22.0,29.99,NNE,30,6.0,9.2,88,0.00,CLR,,0.14,WeatherDisplay:10.37,2013-03-06 00:18:00,
2013-03-05 18:19:00,25.1,22.0,29.98,North,357,6.8,10.4,88,0.00,CLR,,0.14,WeatherDisplay:10.37,2013-03-06 00:19:00,
2013-03-05 18:21:00,25.1,22.0,29.99,North,350,6.3,9.2,88,0.00,CLR,,0.14,WeatherDisplay:10.37,2013-03-06 00:21:00,
2013-03-05 18:23:00,25.2,22.1,29.99,North,6,4.6,9.2,88,0.00,CLR,,0.14,WeatherDisplay:10.37,2013-03-06 00:23:00,
2013-03-05 18:24:00,25.1,22.0,29.99,North,360,7.1,9.2,88,0.00,CLR,,0.14,WeatherDisplay:10.37,2013-03-06 00:24:00,
2013-03-05 18:27:00,25.0,21.9,29.99,North,8,6.4,9.2,88,0.00,CLR,,0.14,WeatherDisplay:10.37,2013-03-06 00:27:00,
2013-03-05 18:28:00,25.1,22.0,29.99,NNW,340,5.0,8.1,88,0.00,CLR,,0.14,WeatherDisplay:10.37,2013-03-06 00:28:00,
2013-03-05 18:29:00,25.1,22.0,29.99,ENE,78,3.9,7.6,88,0.00,CLR,,0.14,WeatherDisplay:10.37,2013-03-06 00:29:00,
2013-03-05 18:32:00,25.1,22.0,29.99,NNW,335,5.9,11.5,88,0.00,CLR,,0.14,WeatherDisplay:10.37,2013-03-06 00:32:00,
2013-03-05 18:33:00,25.1,22.0,29.99,North,1,5.6,9.2,88,0.00,CLR,,0.14,WeatherDisplay:10.37,2013-03-06 00:33:00,
2013-03-05 18:34:00,25.1,22.0,29.99,NNE,27,4.6,8.1,88,0.00,CLR,,0.14,WeatherDisplay:10.37,2013-03-06 00:34:00,
2013-03-05 18:37:00,25.2,22.1,29.99,North,360,6.6,9.2,88,0.00,CLR,,0.14,WeatherDisplay:10.37,2013-03-06 00:37:00,
2013-03-05 18:38:00,25.1,22.0,29.99,NNE,21,7.1,10.4,88,0.00,CLR,,0.14,WeatherDisplay:10.37,2013-03-06 00:38:00,
2013-03-05 18:39:00,25.1,22.0,29.99,NW,316,4.7,10.4,88,0.00,CLR,,0.14,WeatherDisplay:10.37,2013-03-06 00:39:00,
2013-03-05 18:42:00,25.1,22.0,29.99,NNE,18,3.6,6.9,88,0.00,CLR,,0.14,WeatherDisplay:10.37,2013-03-06 00:42:00,
2013-03-05 18:43:00,25.2,22.1,29.99,North,360,5.0,6.9,88,0.00,CLR,,0.14,WeatherDisplay:10.37,2013-03-06 00:43:00,
2013-03-05 18:44:00,25.1,22.0,29.99,North,359,5.4,6.9,88,0.00,CLR,,0.14,WeatherDisplay:10.37,2013-03-06 00:44:00,
2013-03-05 18:47:00,25.1,22.0,29.99,North,360,4.6,5.8,88,0.00,CLR,,0.14,WeatherDisplay:10.37,2013-03-06 00:47:00,
2013-03-05 18:48:00,25.1,22.0,29.99,ENE,66,6.0,10.4,88,0.00,CLR,,0.14,WeatherDisplay:10.37,2013-03-06 00:48:00,
2013-03-05 18:49:00,25.1,22.0,30.00,NNE,23,5.0,10.4,88,0.00,CLR,,0.14,WeatherDisplay:10.37,2013-03-06 00:49:00,
2013-03-05 18:52:00,25.1,22.0,29.99,NNW,342,5.8,7.1,88,0.00,CLR,,0.14,WeatherDisplay:10.37,2013-03-06 00:52:00,
2013-03-05 18:53:00,25.0,21.9,29.99,North,0,5.8,7.1,88,0.00,CLR,,0.14,WeatherDisplay:10.37,2013-03-06 00:53:00,
2013-03-05 18:54:00,25.1,22.0,29.99,NNW,347,3.8,9.2,88,0.00,CLR,,0.14,WeatherDisplay:10.37,2013-03-06 00:54:00,
2013-03-05 18:58:00,25.1,22.0,30.00,NNE,30,6.2,6.9,88,0.00,CLR,,0.14,WeatherDisplay:10.37,2013-03-06 00:58:00,
2013-03-05 18:59:00,25.1,22.0,30.00,East,85,5.0,9.2,88,0.00,CLR,,0.14,WeatherDisplay:10.37,2013-03-06 00:59:00,
2013-03-05 19:03:00,25.1,22.0,30.00,North,11,6.6,9.2,88,0.00,CLR,,0.14,WeatherDisplay:10.37,2013-03-06 01:03:00,
2013-03-05 19:04:00,25.1,22.0,30.00,NNE,23,5.6,11.5,88,0.00,CLR,,0.14,WeatherDisplay:10.37,2013-03-06 01:04:00,
2013-03-05 19:08:00,25.1,22.0,30.00,ENE,62,7.8,9.2,88,0.00,CLR,,0.14,WeatherDisplay:10.37,2013-03-06 01:08:00,
2013-03-05 19:09:00,25.1,22.0,30.00,North,11,7.1,11.5,88,0.00,CLR,,0.14,WeatherDisplay:10.37,2013-03-06 01:09:00,
2013-03-05 19:13:00,25.2,22.1,30.00,North,1,3.2,6.9,88,0.00,CLR,,0.14,WeatherDisplay:10.37,2013-03-06 01:13:00,
2013-03-05 19:14:00,25.1,22.0,30.00,NNE,24,4.5,6.5,88,0.00,CLR,,0.14,WeatherDisplay:10.37,2013-03-06 01:14:00,
2013-03-05 19:15:00,25.2,22.1,30.00,North,11,4.9,6.9,88,0.00,CLR,,0.14,WeatherDisplay:10.37,2013-03-06 01:15:00,
2013-03-05 19:18:00,25.1,22.0,30.00,NE,55,5.6,6.9,88,0.00,CLR,,0.14,WeatherDisplay:10.37,2013-03-06 01:18:00,
2013-03-05 19:19:00,25.1,22.0,30.00,North,6,5.8,8.0,88,0.00,CLR,,0.14,WeatherDisplay:10.37,2013-03-06 01:19:00,
2013-03-05 19:20:00,25.2,22.1,30.00,NE,52,3.3,8.1,88,0.00,CLR,,0.14,WeatherDisplay:10.37,2013-03-06 01:20:00,
2013-03-05 19:23:00,25.2,22.1,30.00,NNE,23,4.1,4.6,88,0.00,CLR,,0.14,WeatherDisplay:10.37,2013-03-06 01:23:00,
2013-03-05 19:24:00,25.2,22.1,30.00,NNE,16,4.3,6.9,88,0.00,CLR,,0.14,WeatherDisplay:10.37,2013-03-06 01:24:00,
2013-03-05 19:25:00,25.2,22.1,30.00,North,353,5.2,6.9,88,0.00,CLR,,0.14,WeatherDisplay:10.37,2013-03-06 01:25:00,
2013-03-05 19:29:00,25.2,22.1,30.00,NE,44,5.8,8.1,88,0.00,CLR,,0.14,WeatherDisplay:10.37,2013-03-06 01:29:00,
2013-03-05 19:30:00,25.1,22.0,30.00,NNE,28,3.1,5.8,88,0.00,CLR,,0.14,WeatherDisplay:10.37,2013-03-06 01:30:00,
2013-03-05 19:31:00,25.1,22.0,30.00,WNW,282,2.3,4.6,88,0.00,CLR,,0.14,WeatherDisplay:10.37,2013-03-06 01:31:00,
2013-03-05 19:34:00,25.1,22.0,30.00,NNE,21,5.8,6.9,88,0.00,CLR,,0.14,WeatherDisplay:10.37,2013-03-06 01:34:00,
2013-03-05 19:35:00,25.2,22.1,30.00,ENE,71,3.5,8.1,88,0.00,CLR,,0.14,WeatherDisplay:10.37,2013-03-06 01:35:00,
2013-03-05 19:36:00,25.2,22.1,30.00,NNW,342,3.2,4.6,88,0.00,CLR,,0.14,WeatherDisplay:10.37,2013-03-06 01:36:00,
2013-03-05 19:39:00,25.1,22.0,30.00,North,360,4.7,9.2,88,0.00,CLR,,0.14,WeatherDisplay:10.37,2013-03-06 01:39:00,
2013-03-05 19:40:00,25.2,22.1,30.00,NNE,32,4.8,8.1,88,0.00,CLR,,0.14,WeatherDisplay:10.37,2013-03-06 01:40:00,
2013-03-05 19:41:00,25.2,22.1,30.00,NNW,344,3.4,6.9,88,0.00,CLR,,0.14,WeatherDisplay:10.37,2013-03-06 01:41:00,
2013-03-05 19:42:00,25.1,22.0,30.00,NNE,27,2.6,4.6,88,0.00,CLR,,0.14,WeatherDisplay:10.37,2013-03-06 01:42:00,
2013-03-05 19:44:00,25.1,22.0,30.01,NNE,14,4.3,6.9,88,0.00,CLR,,0.14,WeatherDisplay:10.37,2013-03-06 01:44:00,
2013-03-05 19:45:00,25.1,22.0,30.01,NNE,31,6.7,8.0,88,0.00,CLR,,0.14,WeatherDisplay:10.37,2013-03-06 01:45:00,
2013-03-05 19:46:00,25.0,21.9,30.01,North,4,5.2,10.4,88,0.00,CLR,,0.14,WeatherDisplay:10.37,2013-03-06 01:46:00,
2013-03-05 19:47:00,25.0,21.9,30.01,North,6,4.5,6.9,88,0.00,CLR,,0.14,WeatherDisplay:10.37,2013-03-06 01:47:00,
2013-03-05 19:49:00,25.0,21.9,30.01,North,360,5.9,10.4,88,0.00,CLR,,0.14,WeatherDisplay:10.37,2013-03-06 01:49:00,
2013-03-05 19:50:00,24.9,21.8,30.01,North,10,5.0,8.1,88,0.00,CLR,,0.14,WeatherDisplay:10.37,2013-03-06 01:50:00,
2013-03-05 19:51:00,24.9,21.8,30.01,NNE,32,4.6,6.9,88,0.00,CLR,,0.14,WeatherDisplay:10.37,2013-03-06 01:51:00,
2013-03-05 19:52:00,25.0,21.9,30.01,North,8,5.2,6.9,88,0.00,CLR,,0.14,WeatherDisplay:10.37,2013-03-06 01:52:00,
2013-03-05 19:54:00,24.9,21.8,30.01,NNE,28,6.3,9.2,88,0.00,CLR,,0.14,WeatherDisplay:10.37,2013-03-06 01:54:00,
2013-03-05 19:56:00,24.9,21.8,30.01,North,10,5.0,7.3,88,0.00,CLR,,0.14,WeatherDisplay:10.37,2013-03-06 01:56:00,
2013-03-05 19:57:00,24.8,21.8,30.01,NNE,32,5.0,9.2,88,0.00,CLR,,0.14,WeatherDisplay:10.37,2013-03-06 01:57:00,
2013-03-05 19:59:00,24.7,21.7,30.01,NNE,28,6.9,10.3,88,0.00,CLR,,0.14,WeatherDisplay:10.37,2013-03-06 01:59:00,
2013-03-05 20:01:00,24.8,21.8,30.01,NNE,31,5.5,10.4,88,0.00,CLR,,0.14,WeatherDisplay:10.37,2013-03-06 02:01:00,
2013-03-05 20:02:00,24.6,21.6,30.01,NNE,18,5.3,9.2,88,0.00,CLR,,0.14,WeatherDisplay:10.37,2013-03-06 02:02:00,
2013-03-05 20:04:00,24.7,21.7,30.01,NNE,23,5.7,9.2,88,0.00,CLR,,0.14,WeatherDisplay:10.37,2013-03-06 02:04:00,
2013-03-05 20:06:00,24.7,21.7,30.01,NNE,16,6.9,11.5,88,0.00,CLR,,0.14,WeatherDisplay:10.37,2013-03-06 02:06:00,
2013-03-05 20:07:00,24.7,21.7,30.01,NNE,30,7.1,10.8,88,0.00,CLR,,0.14,WeatherDisplay:10.37,2013-03-06 02:07:00,
2013-03-05 20:09:00,24.7,21.7,30.01,ENE,75,6.2,9.2,88,0.00,CLR,,0.14,WeatherDisplay:10.37,2013-03-06 02:09:00,
2013-03-05 20:11:00,24.6,21.6,30.02,NNE,13,5.5,9.2,88,0.00,CLR,,0.14,WeatherDisplay:10.37,2013-03-06 02:11:00,
2013-03-05 20:12:00,24.6,21.6,30.02,North,350,4.6,9.2,88,0.00,CLR,,0.14,WeatherDisplay:10.37,2013-03-06 02:12:00,
2013-03-05 20:14:00,24.4,21.4,30.02,NNE,25,5.9,10.4,88,0.00,CLR,,0.14,WeatherDisplay:10.37,2013-03-06 02:14:00,
2013-03-05 20:16:00,24.6,21.6,30.02,NNE,17,7.1,9.2,88,0.00,CLR,,0.14,WeatherDisplay:10.37,2013-03-06 02:16:00,
2013-03-05 20:17:00,24.6,21.6,30.02,North,8,7.6,9.3,88,0.00,CLR,,0.14,WeatherDisplay:10.37,2013-03-06 02:17:00,
2013-03-05 20:19:00,24.4,21.1,30.02,NE,48,3.3,6.9,87,0.00,CLR,,0.14,WeatherDisplay:10.37,2013-03-06 02:19:00,
2013-03-05 20:21:00,24.4,21.1,30.02,NNE,23,5.4,8.1,87,0.00,CLR,,0.14,WeatherDisplay:10.37,2013-03-06 02:21:00,
2013-03-05 20:22:00,24.3,21.0,30.02,NE,41,4.7,8.1,87,0.00,CLR,,0.14,WeatherDisplay:10.37,2013-03-06 02:22:00,
2013-03-05 20:23:00,24.3,21.0,30.02,NNE,17,5.0,6.9,87,0.00,CLR,,0.14,WeatherDisplay:10.37,2013-03-06 02:23:00,
2013-03-05 20:24:00,24.4,21.1,30.02,NNE,18,5.7,9.2,87,0.00,CLR,,0.14,WeatherDisplay:10.37,2013-03-06 02:24:00,
2013-03-05 20:26:00,24.3,21.0,30.02,NE,35,5.2,9.2,87,0.00,CLR,,0.14,WeatherDisplay:10.37,2013-03-06 02:26:00,
2013-03-05 20:27:00,24.1,20.8,30.02,NNE,21,5.9,9.2,87,0.00,CLR,,0.14,WeatherDisplay:10.37,2013-03-06 02:27:00,
2013-03-05 20:28:00,24.2,20.9,30.02,North,360,5.6,9.2,87,0.00,CLR,,0.14,WeatherDisplay:10.37,2013-03-06 02:28:00,
2013-03-05 20:29:00,24.2,20.9,30.02,NNE,25,4.1,8.1,87,0.00,CLR,,0.14,WeatherDisplay:10.37,2013-03-06 02:29:00,
2013-03-05 20:31:00,24.2,20.9,30.02,NNE,27,4.4,6.9,87,0.00,CLR,,0.14,WeatherDisplay:10.37,2013-03-06 02:31:00,
2013-03-05 20:32:00,24.1,20.8,30.02,North,7,4.4,6.5,87,0.00,CLR,,0.14,WeatherDisplay:10.37,2013-03-06 02:32:00,
2013-03-05 20:33:00,24.1,20.8,30.02,NNW,330,5.4,6.3,87,0.00,CLR,,0.14,WeatherDisplay:10.37,2013-03-06 02:33:00,
2013-03-05 20:34:00,24.1,20.8,30.02,ENE,59,3.9,5.8,87,0.00,CLR,,0.14,WeatherDisplay:10.37,2013-03-06 02:34:00,
2013-03-05 20:37:00,24.0,20.7,30.02,NNE,14,4.3,6.2,87,0.00,CLR,,0.14,WeatherDisplay:10.37,2013-03-06 02:37:00,
2013-03-05 20:38:00,24.0,20.7,30.02,NNE,28,5.6,6.3,87,0.00,CLR,,0.14,WeatherDisplay:10.37,2013-03-06 02:38:00,
2013-03-05 20:39:00,24.0,20.7,30.02,NNW,344,4.9,8.1,87,0.00,CLR,,0.14,WeatherDisplay:10.37,2013-03-06 02:39:00,
2013-03-05 20:42:00,24.0,20.7,30.02,NNE,18,5.7,6.9,87,0.00,CLR,,0.14,WeatherDisplay:10.37,2013-03-06 02:42:00,
2013-03-05 20:43:00,23.9,20.6,30.02,NNE,14,3.6,7.5,87,0.00,CLR,,0.14,WeatherDisplay:10.37,2013-03-06 02:43:00,
2013-03-05 20:44:00,24.0,20.7,30.02,North,11,4.9,8.1,87,0.00,CLR,,0.14,WeatherDisplay:10.37,2013-03-06 02:44:00,
2013-03-05 20:47:00,24.0,20.7,30.02,North,8,5.8,9.2,87,0.00,CLR,,0.14,WeatherDisplay:10.37,2013-03-06 02:47:00,
2013-03-05 20:48:00,24.1,20.8,30.02,NNE,23,4.1,7.9,87,0.00,CLR,,0.14,WeatherDisplay:10.37,2013-03-06 02:48:00,
2013-03-05 20:49:00,24.0,20.7,30.02,NNE,31,3.9,5.8,87,0.00,CLR,,0.14,WeatherDisplay:10.37,2013-03-06 02:49:00,
2013-03-05 20:50:00,24.1,20.8,30.02,NE,47,4.5,9.2,87,0.00,CLR,,0.14,WeatherDisplay:10.37,2013-03-06 02:50:00,
2013-03-05 20:53:00,24.1,20.8,30.03,North,0,5.4,10.4,87,0.00,CLR,,0.14,WeatherDisplay:10.37,2013-03-06 02:53:00,
2013-03-05 20:54:00,24.0,20.7,30.03,NNW,347,4.7,8.1,87,0.00,CLR,,0.14,WeatherDisplay:10.37,2013-03-06 02:54:00,
2013-03-05 20:55:00,24.0,20.7,30.03,North,349,5.0,6.9,87,0.00,CLR,,0.14,WeatherDisplay:10.37,2013-03-06 02:55:00,
2013-03-05 20:58:00,24.1,20.5,30.03,North,360,5.3,6.6,86,0.00,CLR,,0.14,WeatherDisplay:10.37,2013-03-06 02:58:00,
2013-03-05 20:59:00,24.1,20.5,30.03,North,1,6.2,8.1,86,0.00,CLR,,0.14,WeatherDisplay:10.37,2013-03-06 02:59:00,
2013-03-05 21:00:00,24.1,20.5,30.03,NNW,343,4.9,8.1,86,0.00,CLR,,0.14,WeatherDisplay:10.37,2013-03-06 03:00:00,
2013-03-05 21:03:00,24.1,20.5,30.03,NNE,14,5.2,9.2,86,0.00,CLR,,0.14,WeatherDisplay:10.37,2013-03-06 03:03:00,
2013-03-05 21:04:00,24.1,20.5,30.03,North,360,6.0,8.0,86,0.00,CLR,,0.14,WeatherDisplay:10.37,2013-03-06 03:04:00,
2013-03-05 21:05:00,24.1,20.5,30.03,NNE,28,5.6,10.4,86,0.00,CLR,,0.14,WeatherDisplay:10.37,2013-03-06 03:05:00,
2013-03-05 21:08:00,24.1,20.5,30.03,NNE,14,4.6,8.1,86,0.00,CLR,,0.14,WeatherDisplay:10.37,2013-03-06 03:08:00,
2013-03-05 21:09:00,24.1,20.5,30.03,NNE,24,5.0,9.6,86,0.00,CLR,,0.14,WeatherDisplay:10.37,2013-03-06 03:09:00,
2013-03-05 21:10:00,24.1,20.5,30.03,North,360,4.6,9.2,86,0.00,CLR,,0.14,WeatherDisplay:10.37,2013-03-06 03:10:00,
2013-03-05 21:13:00,24.1,20.5,30.03,NE,47,4.1,8.1,86,0.00,CLR,,0.14,WeatherDisplay:10.37,2013-03-06 03:13:00,
2013-03-05 21:14:00,24.0,20.4,30.03,NNE,32,4.5,6.9,86,0.00,CLR,,0.14,WeatherDisplay:10.37,2013-03-06 03:14:00,
2013-03-05 21:15:00,24.1,20.5,30.03,NE,40,4.1,5.8,86,0.00,CLR,,0.14,WeatherDisplay:10.37,2013-03-06 03:15:00,
2013-03-05 21:18:00,24.0,20.4,30.03,North,8,2.6,3.5,86,0.00,CLR,,0.14,WeatherDisplay:10.37,2013-03-06 03:18:00,
2013-03-05 21:19:00,24.0,20.4,30.03,NE,37,2.8,4.5,86,0.00,CLR,,0.14,WeatherDisplay:10.37,2013-03-06 03:19:00,
2013-03-05 21:20:00,24.0,20.4,30.03,North,10,3.3,5.3,86,0.00,CLR,,0.14,WeatherDisplay:10.37,2013-03-06 03:20:00,
2013-03-05 21:24:00,24.0,20.4,30.03,NNE,14,4.0,6.9,86,0.00,CLR,,0.14,WeatherDisplay:10.37,2013-03-06 03:24:00,
2013-03-05 21:25:00,24.0,20.4,30.03,NE,42,4.9,8.1,86,0.00,CLR,,0.14,WeatherDisplay:10.37,2013-03-06 03:25:00,
2013-03-05 21:29:00,23.9,20.0,30.03,NNW,347,2.9,6.9,85,0.00,CLR,,0.14,WeatherDisplay:10.37,2013-03-06 03:29:00,
2013-03-05 21:30:00,23.8,19.9,30.03,North,360,4.3,6.9,85,0.00,CLR,,0.14,WeatherDisplay:10.37,2013-03-06 03:30:00,
2013-03-05 21:34:00,23.8,19.9,30.04,NNE,18,5.0,5.8,85,0.00,CLR,,0.14,WeatherDisplay:10.37,2013-03-06 03:34:00,
2013-03-05 21:35:00,23.7,19.9,30.04,North,360,6.3,8.1,85,0.00,CLR,,0.14,WeatherDisplay:10.37,2013-03-06 03:35:00,
2013-03-05 21:39:00,23.6,19.8,30.04,WNW,296,3.8,6.9,85,0.00,CLR,,0.14,WeatherDisplay:10.37,2013-03-06 03:39:00,
2013-03-05 21:40:00,23.6,19.8,30.04,North,353,1.3,8.3,85,0.00,CLR,,0.14,WeatherDisplay:10.37,2013-03-06 03:40:00,
2013-03-05 21:41:00,23.6,19.8,30.04,North,360,3.7,6.8,85,0.00,CLR,,0.14,WeatherDisplay:10.37,2013-03-06 03:41:00,
2013-03-05 21:44:00,23.6,19.8,30.04,NW,311,2.6,6.9,85,0.00,CLR,,0.14,WeatherDisplay:10.37,2013-03-06 03:44:00,
2013-03-05 21:45:00,23.6,19.8,30.04,NNE,18,2.0,6.9,85,0.00,CLR,,0.14,WeatherDisplay:10.37,2013-03-06 03:45:00,
2013-03-05 21:46:00,23.5,19.7,30.04,NNW,342,2.7,6.1,85,0.00,CLR,,0.14,WeatherDisplay:10.37,2013-03-06 03:46:00,
2013-03-05 21:49:00,23.4,19.6,30.04,NNW,335,4.1,8.1,85,0.00,CLR,,0.14,WeatherDisplay:10.37,2013-03-06 03:49:00,
2013-03-05 21:50:00,23.4,19.6,30.04,NNW,335,2.5,8.1,85,0.00,CLR,,0.14,WeatherDisplay:10.37,2013-03-06 03:50:00,
2013-03-05 21:51:00,23.5,19.7,30.04,NE,35,1.8,4.6,85,0.00,CLR,,0.14,WeatherDisplay:10.37,2013-03-06 03:51:00,
2013-03-05 21:55:00,23.3,19.5,30.04,NNW,337,4.0,10.4,85,0.00,CLR,,0.14,WeatherDisplay:10.37,2013-03-06 03:55:00,
2013-03-05 21:56:00,23.2,19.4,30.05,NNW,332,0.0,6.9,85,0.00,CLR,,0.14,WeatherDisplay:10.37,2013-03-06 03:56:00,
2013-03-05 22:00:00,23.3,19.5,30.05,NNW,339,4.1,7.7,85,0.00,CLR,,0.14,WeatherDisplay:10.37,2013-03-06 04:00:00,
2013-03-05 22:01:00,23.2,19.4,30.05,North,360,1.8,8.1,85,0.00,CLR,,0.14,WeatherDisplay:10.37,2013-03-06 04:01:00,
2013-03-05 22:05:00,23.2,19.1,30.05,NNW,340,1.0,5.8,84,0.00,CLR,,0.14,WeatherDisplay:10.37,2013-03-06 04:05:00,
2013-03-05 22:06:00,23.1,19.0,30.05,West,271,2.1,5.8,84,0.00,CLR,,0.14,WeatherDisplay:10.37,2013-03-06 04:06:00,
2013-03-05 22:10:00,23.0,18.9,30.05,NNW,329,0.4,4.2,84,0.00,CLR,,0.14,WeatherDisplay:10.37,2013-03-06 04:10:00,
2013-03-05 22:11:00,22.9,18.8,30.05,North,360,3.4,6.9,84,0.00,CLR,,0.14,WeatherDisplay:10.37,2013-03-06 04:11:00,
2013-03-05 22:12:00,22.9,18.8,30.05,North,360,2.8,6.9,84,0.00,CLR,,0.14,WeatherDisplay:10.37,2013-03-06 04:12:00,
2013-03-05 22:15:00,22.9,18.8,30.05,North,349,0.6,4.6,84,0.00,CLR,,0.14,WeatherDisplay:10.37,2013-03-06 04:15:00,
2013-03-05 22:16:00,22.8,18.7,30.05,North,349,0.1,4.6,84,0.00,CLR,,0.14,WeatherDisplay:10.37,2013-03-06 04:16:00,
2013-03-05 22:17:00,22.8,18.7,30.05,North,349,0.0,0.0,84,0.00,CLR,,0.14,WeatherDisplay:10.37,2013-03-06 04:17:00,
2013-03-05 22:20:00,22.8,18.7,30.05,WNW,287,3.1,6.9,84,0.00,CLR,,0.14,WeatherDisplay:10.37,2013-03-06 04:20:00,
2013-03-05 22:21:00,22.8,18.7,30.05,NNW,335,2.6,6.9,84,0.00,CLR,,0.14,WeatherDisplay:10.37,2013-03-06 04:21:00,
2013-03-05 22:22:00,22.8,18.7,30.05,NW,311,0.8,3.5,84,0.00,CLR,,0.14,WeatherDisplay:10.37,2013-03-06 04:22:00,
2013-03-05 22:26:00,22.8,18.7,30.05,North,352,2.6,5.8,84,0.00,CLR,,0.14,WeatherDisplay:10.37,2013-03-06 04:26:00,
2013-03-05 22:27:00,22.8,18.7,30.05,NNW,332,4.4,7.2,84,0.00,CLR,,0.14,WeatherDisplay:10.37,2013-03-06 04:27:00,
2013-03-05 22:31:00,22.7,18.6,30.06,North,357,2.7,10.4,84,0.00,CLR,,0.14,WeatherDisplay:10.37,2013-03-06 04:31:00,
2013-03-05 22:32:00,22.8,18.7,30.06,West,281,2.1,8.1,84,0.00,CLR,,0.14,WeatherDisplay:10.37,2013-03-06 04:32:00,
2013-03-05 22:36:00,22.8,18.7,30.06,NW,322,4.6,8.1,84,0.00,CLR,,0.14,WeatherDisplay:10.37,2013-03-06 04:36:00,
2013-03-05 22:37:00,22.8,18.7,30.06,North,360,4.9,7.2,84,0.00,CLR,,0.14,WeatherDisplay:10.37,2013-03-06 04:37:00,
2013-03-05 22:41:00,22.7,18.6,30.06,NE,45,1.8,5.8,84,0.00,CLR,,0.14,WeatherDisplay:10.37,2013-03-06 04:41:00,
2013-03-05 22:42:00,22.7,18.6,30.06,NNE,14,1.4,5.8,84,0.00,CLR,,0.14,WeatherDisplay:10.37,2013-03-06 04:42:00,
2013-03-05 22:46:00,22.8,18.7,30.06,NNW,340,0.9,5.8,84,0.00,CLR,,0.14,WeatherDisplay:10.37,2013-03-06 04:46:00,
2013-03-05 22:47:00,22.8,18.7,30.06,NNW,335,2.8,7.3,84,0.00,CLR,,0.14,WeatherDisplay:10.37,2013-03-06 04:47:00,
2013-03-05 22:52:00,23.0,18.9,30.06,NNW,330,1.6,5.8,84,0.00,CLR,,0.14,WeatherDisplay:10.37,2013-03-06 04:52:00,
2013-03-05 22:57:00,23.1,19.0,30.06,NNW,332,2.9,8.1,84,0.00,CLR,,0.14,WeatherDisplay:10.37,2013-03-06 04:57:00,
2013-03-05 23:00:00,23.1,19.0,30.06,NNW,340,3.5,10.4,84,0.00,CLR,,0.14,WeatherDisplay:10.37,2013-03-06 05:00:00,
2013-03-05 23:05:00,23.3,19.2,30.06,West,270,0.2,4.6,84,0.00,CLR,,0.14,WeatherDisplay:10.37,2013-03-06 05:05:00,
2013-03-05 23:06:00,23.3,19.2,30.06,NW,319,2.1,5.9,84,0.00,CLR,,0.14,WeatherDisplay:10.37,2013-03-06 05:06:00,
2013-03-05 23:10:00,23.4,19.3,30.06,North,357,4.9,7.1,84,0.00,CLR,,0.14,WeatherDisplay:10.37,2013-03-06 05:10:00,
2013-03-05 23:11:00,23.4,19.3,30.06,WNW,296,0.6,9.2,84,0.00,CLR,,0.14,WeatherDisplay:10.37,2013-03-06 05:11:00,
2013-03-05 23:15:00,23.5,19.4,30.07,NNW,335,0.6,9.2,84,0.00,CLR,,0.14,WeatherDisplay:10.37,2013-03-06 05:15:00,
2013-03-05 23:16:00,23.4,19.3,30.07,NW,319,3.7,4.2,84,0.00,CLR,,0.14,WeatherDisplay:10.37,2013-03-06 05:16:00,
2013-03-05 23:20:00,23.6,19.5,30.07,North,349,3.9,6.9,84,0.00,CLR,,0.14,WeatherDisplay:10.37,2013-03-06 05:20:00,
2013-03-05 23:21:00,23.6,19.5,30.07,NNE,21,4.5,6.9,84,0.00,CLR,,0.14,WeatherDisplay:10.37,2013-03-06 05:21:00,
2013-03-05 23:25:00,23.7,19.6,30.07,West,271,1.4,4.6,84,0.00,CLR,,0.14,WeatherDisplay:10.37,2013-03-06 05:25:00,
2013-03-05 23:26:00,23.7,19.6,30.07,North,1,2.2,8.8,84,0.00,CLR,,0.14,WeatherDisplay:10.37,2013-03-06 05:26:00,
2013-03-05 23:27:00,23.6,19.5,30.07,NNE,16,5.9,9.2,84,0.00,CLR,,0.14,WeatherDisplay:10.37,2013-03-06 05:27:00,
2013-03-05 23:30:00,23.7,19.6,30.07,NNW,336,1.9,6.9,84,0.00,CLR,,0.14,WeatherDisplay:10.37,2013-03-06 05:30:00,
2013-03-05 23:31:00,23.7,19.6,30.07,NW,305,3.1,6.9,84,0.00,CLR,,0.14,WeatherDisplay:10.37,2013-03-06 05:31:00,
2013-03-05 23:32:00,23.7,19.6,30.07,NNW,346,4.3,9.2,84,0.00,CLR,,0.14,WeatherDisplay:10.37,2013-03-06 05:32:00,
2013-03-05 23:35:00,23.7,19.6,30.07,NNW,330,4.2,6.9,84,0.00,CLR,,0.14,WeatherDisplay:10.37,2013-03-06 05:35:00,
2013-03-05 23:36:00,23.7,19.6,30.07,WNW,298,4.1,6.9,84,0.00,CLR,,0.14,WeatherDisplay:10.37,2013-03-06 05:36:00,
2013-03-05 23:37:00,23.8,19.7,30.07,NW,313,5.1,10.4,84,0.00,CLR,,0.14,WeatherDisplay:10.37,2013-03-06 05:37:00,
2013-03-05 23:41:00,23.8,19.7,30.07,North,352,4.5,7.3,84,0.00,CLR,,0.14,WeatherDisplay:10.37,2013-03-06 05:41:00,
2013-03-05 23:42:00,23.8,19.7,30.08,NNE,21,3.0,8.1,84,0.00,CLR,,0.14,WeatherDisplay:10.37,2013-03-06 05:42:00,
2013-03-05 23:46:00,23.8,19.7,30.08,NW,311,6.2,8.1,84,0.00,CLR,,0.14,WeatherDisplay:10.37,2013-03-06 05:46:00,
2013-03-05 23:47:00,23.8,19.7,30.08,NNW,342,3.7,6.9,84,0.00,CLR,,0.14,WeatherDisplay:10.37,2013-03-06 05:47:00,
2013-03-05 23:51:00,23.8,19.7,30.08,NW,311,3.6,8.1,84,0.00,CLR,,0.14,WeatherDisplay:10.37,2013-03-06 05:51:00,
2013-03-05 23:52:00,23.8,19.7,30.08,NNW,346,2.6,9.2,84,0.00,CLR,,0.14,WeatherDisplay:10.37,2013-03-06 05:52:00,
2013-03-05 23:56:00,23.9,19.8,30.08,WNW,289,5.6,10.4,84,0.00,CLR,,0.14,WeatherDisplay:10.37,2013-03-06 05:56:00,
2013-03-05 23:57:00,23.8,19.7,30.08,NNW,339,7.0,9.2,84,0.00,CLR,,0.14,WeatherDisplay:10.37,2013-03-06 05:57:00,